Observation data for Boys Ranch on 08/15/2019      Previous  Date  Next       Current Mesonet Observations  Soil Data  Daily Summary Page  Observations in Plain Language
KBY1 150500Z 08006KT 24/15 A3016 RMK A01 T02440151  RH  056%=      5-min Rain = 0
KBY1 150501Z 08007KT 25/15 A3016 RMK A01 T02450151  RH  056%=      5-min Rain = 0
KBY1 150502Z 08006KT 25/15 A3016 RMK A01 T02450151  RH  056%=      5-min Rain = 0
KBY1 150503Z 08006KT 25/15 A3016 RMK A01 T02450151  RH  056%=      5-min Rain = 0
KBY1 150504Z 07006KT 25/15 A3016 RMK A01 T02450150  RH  055%=      5-min Rain = 0
KBY1 150505Z 08006KT 25/15 A3016 RMK A01 T02450150  RH  055%=      5-min Rain = 0
KBY1 150506Z 08006KT 25/15 A3016 RMK A01 T02450150  RH  055%=      5-min Rain = 0
KBY1 150507Z 08006KT 25/15 A3016 RMK A01 T02460150  RH  055%=      5-min Rain = 0
KBY1 150508Z 08005KT 25/15 A3016 RMK A01 T02460150  RH  055%=      5-min Rain = 0
KBY1 150509Z 08005KT 25/15 A3016 RMK A01 T02460150  RH  055%=      5-min Rain = 0
KBY1 150510Z 08006KT 25/15 A3016 RMK A01 T02460150  RH  055%=      5-min Rain = 0
KBY1 150511Z 08005KT 25/15 A3016 RMK A01 T02460149  RH  055%=      5-min Rain = 0
KBY1 150512Z 08004KT 25/15 A3016 RMK A01 T02460150  RH  055%=      5-min Rain = 0
KBY1 150513Z 08005KT 25/15 A3016 RMK A01 T02460150  RH  055%=      5-min Rain = 0
KBY1 150514Z 07005KT 25/15 A3016 RMK A01 T02460150  RH  055%=      5-min Rain = 0
KBY1 150515Z 09006KT 25/15 A3016 RMK A01 T02450150  RH  055%=      5-min Rain = 0
KBY1 150516Z 08005KT 25/15 A3016 RMK A01 T02450150  RH  055%=      5-min Rain = 0
KBY1 150517Z 08005KT 25/15 A3016 RMK A01 T02450151  RH  056%=      5-min Rain = 0
KBY1 150518Z 08005KT 25/15 A3016 RMK A01 T02450150  RH  056%=      5-min Rain = 0
KBY1 150519Z 08005KT 25/15 A3016 RMK A01 T02450151  RH  056%=      5-min Rain = 0
KBY1 150520Z 08005KT 24/15 A3016 RMK A01 T02440151  RH  056%=      5-min Rain = 0
KBY1 150521Z 08005KT 24/15 A3016 RMK A01 T02430151  RH  057%=      5-min Rain = 0
KBY1 150522Z 08005KT 24/15 A3016 RMK A01 T02420152  RH  057%=      5-min Rain = 0
KBY1 150523Z 08005KT 24/15 A3016 RMK A01 T02420152  RH  057%=      5-min Rain = 0
KBY1 150524Z 08004KT 24/15 A3016 RMK A01 T02420151  RH  057%=      5-min Rain = 0
KBY1 150525Z 08005KT 24/15 A3016 RMK A01 T02420151  RH  057%=      5-min Rain = 0
KBY1 150526Z 08005KT 24/15 A3016 RMK A01 T02420151  RH  057%=      5-min Rain = 0
KBY1 150527Z 08004KT 24/15 A3016 RMK A01 T02420151  RH  057%=      5-min Rain = 0
KBY1 150528Z 08004KT 24/15 A3016 RMK A01 T02420152  RH  057%=      5-min Rain = 0
KBY1 150529Z 08004KT 24/15 A3016 RMK A01 T02420152  RH  057%=      5-min Rain = 0
KBY1 150530Z 08004KT 24/15 A3016 RMK A01 T02420152  RH  057%=      5-min Rain = 0
KBY1 150531Z 08005KT 24/15 A3016 RMK A01 T02420152  RH  057%=      5-min Rain = 0
KBY1 150532Z 08005KT 24/15 A3016 RMK A01 T02420152  RH  057%=      5-min Rain = 0
KBY1 150533Z 08004KT 24/15 A3016 RMK A01 T02410151  RH  057%=      5-min Rain = 0
KBY1 150534Z 08004KT 24/15 A3016 RMK A01 T02420152  RH  057%=      5-min Rain = 0
KBY1 150535Z 08004KT 24/15 A3016 RMK A01 T02410152  RH  058%=      5-min Rain = 0
KBY1 150536Z 08005KT 24/15 A3016 RMK A01 T02410152  RH  058%=      5-min Rain = 0
KBY1 150537Z 08004KT 24/15 A3016 RMK A01 T02410152  RH  058%=      5-min Rain = 0
KBY1 150538Z 08004KT 24/15 A3016 RMK A01 T02410153  RH  058%=      5-min Rain = 0
KBY1 150539Z 08004KT 24/15 A3016 RMK A01 T02400152  RH  058%=      5-min Rain = 0
KBY1 150540Z 08004KT 24/15 A3016 RMK A01 T02400152  RH  058%=      5-min Rain = 0
KBY1 150541Z 08004KT 24/15 A3016 RMK A01 T02400153  RH  058%=      5-min Rain = 0
KBY1 150542Z 08004KT 24/15 A3016 RMK A01 T02390153  RH  058%=      5-min Rain = 0
KBY1 150543Z 08004KT 24/15 A3016 RMK A01 T02390153  RH  058%=      5-min Rain = 0
KBY1 150544Z 08004KT 24/15 A3016 RMK A01 T02390153  RH  059%=      5-min Rain = 0
KBY1 150545Z 08005KT 24/15 A3016 RMK A01 T02390153  RH  059%=      5-min Rain = 0
KBY1 150546Z 08005KT 24/15 A3016 RMK A01 T02380153  RH  059%=      5-min Rain = 0
KBY1 150547Z 08005KT 24/15 A3016 RMK A01 T02380153  RH  059%=      5-min Rain = 0
KBY1 150548Z 08005KT 24/15 A3016 RMK A01 T02370153  RH  059%=      5-min Rain = 0
KBY1 150549Z 08005KT 24/15 A3016 RMK A01 T02370153  RH  059%=      5-min Rain = 0
KBY1 150550Z 08005KT 24/15 A3016 RMK A01 T02360153  RH  060%=      5-min Rain = 0
KBY1 150551Z 08006KT 24/15 A3016 RMK A01 T02360153  RH  060%=      5-min Rain = 0
KBY1 150552Z 08005KT 24/15 A3016 RMK A01 T02360153  RH  060%=      5-min Rain = 0
KBY1 150553Z 08005KT 24/15 A3016 RMK A01 T02360153  RH  060%=      5-min Rain = 0
KBY1 150554Z 08006KT 24/15 A3016 RMK A01 T02360153  RH  060%=      5-min Rain = 0
KBY1 150555Z 08005KT 24/15 A3016 RMK A01 T02360153  RH  060%=      5-min Rain = 0
KBY1 150556Z 08005KT 24/15 A3016 RMK A01 T02360153  RH  060%=      5-min Rain = 0
KBY1 150557Z 08005KT 24/15 A3016 RMK A01 T02360154  RH  060%=      5-min Rain = 0
KBY1 150558Z 08005KT 24/15 A3016 RMK A01 T02360154  RH  060%=      5-min Rain = 0
KBY1 150559Z 08005KT 24/15 A3016 RMK A01 T02360153  RH  060%=      5-min Rain = 0
KBY1 150600Z 08005KT 24/15 A3016 RMK A01 T02360154  RH  060%=      5-min Rain = 0
KBY1 150601Z 08006KT 24/15 A3016 RMK A01 T02370153  RH  059%=      5-min Rain = 0
KBY1 150602Z 09005KT 24/15 A3016 RMK A01 T02370154  RH  059%=      5-min Rain = 0
KBY1 150603Z 08005KT 24/16 A3016 RMK A01 T02380155  RH  060%=      5-min Rain = 0
KBY1 150604Z 08004KT 24/16 A3016 RMK A01 T02370155  RH  060%=      5-min Rain = 0
KBY1 150605Z 08004KT 24/15 A3016 RMK A01 T02370154  RH  060%=      5-min Rain = 0
KBY1 150606Z 09004KT 24/15 A3016 RMK A01 T02370154  RH  060%=      5-min Rain = 0
KBY1 150607Z 09003KT 24/15 A3016 RMK A01 T02370154  RH  060%=      5-min Rain = 0
KBY1 150608Z 09003KT 24/16 A3016 RMK A01 T02370155  RH  060%=      5-min Rain = 0
KBY1 150609Z 09003KT 24/16 A3016 RMK A01 T02370155  RH  060%=      5-min Rain = 0
KBY1 150610Z 10002KT 24/16 A3016 RMK A01 T02370156  RH  060%=      5-min Rain = 0
KBY1 150611Z 11002KT 24/16 A3016 RMK A01 T02360156  RH  061%=      5-min Rain = 0
KBY1 150612Z 11001KT 24/16 A3016 RMK A01 T02360157  RH  061%=      5-min Rain = 0
KBY1 150613Z 10002KT 24/16 A3016 RMK A01 T02360157  RH  061%=      5-min Rain = 0
KBY1 150614Z 10002KT 24/16 A3016 RMK A01 T02350157  RH  061%=      5-min Rain = 0
KBY1 150615Z 10002KT 24/16 A3016 RMK A01 T02350156  RH  061%=      5-min Rain = 0
KBY1 150616Z 10002KT 24/16 A3016 RMK A01 T02350156  RH  061%=      5-min Rain = 0
KBY1 150617Z 11002KT 24/16 A3016 RMK A01 T02350156  RH  061%=      5-min Rain = 0
KBY1 150618Z 12001KT 24/16 A3016 RMK A01 T02350157  RH  062%=      5-min Rain = 0
KBY1 150619Z 12001KT 24/16 A3016 RMK A01 T02350157  RH  062%=      5-min Rain = 0
KBY1 150620Z 11001KT 23/16 A3016 RMK A01 T02340156  RH  061%=      5-min Rain = 0
KBY1 150621Z 11001KT 23/16 A3016 RMK A01 T02340155  RH  061%=      5-min Rain = 0
KBY1 150622Z 11001KT 23/16 A3016 RMK A01 T02340155  RH  061%=      5-min Rain = 0
KBY1 150623Z 12001KT 23/16 A3016 RMK A01 T02340156  RH  062%=      5-min Rain = 0
KBY1 150624Z 09002KT 23/15 A3016 RMK A01 T02340154  RH  061%=      5-min Rain = 0
KBY1 150625Z 09002KT 23/16 A3016 RMK A01 T02340157  RH  062%=      5-min Rain = 0
KBY1 150626Z 10003KT 23/16 A3016 RMK A01 T02340155  RH  061%=      5-min Rain = 0
KBY1 150627Z 09002KT 23/16 A3016 RMK A01 T02340155  RH  061%=      5-min Rain = 0
KBY1 150628Z 11002KT 23/16 A3016 RMK A01 T02340156  RH  061%=      5-min Rain = 0
KBY1 150629Z 10002KT 24/16 A3016 RMK A01 T02350157  RH  062%=      5-min Rain = 0
KBY1 150630Z 10003KT 24/16 A3016 RMK A01 T02350158  RH  062%=      5-min Rain = 0
KBY1 150631Z 09003KT 24/16 A3016 RMK A01 T02350156  RH  061%=      5-min Rain = 0
KBY1 150632Z 09003KT 24/16 A3016 RMK A01 T02350157  RH  062%=      5-min Rain = 0
KBY1 150633Z 09003KT 24/16 A3016 RMK A01 T02350158  RH  062%=      5-min Rain = 0
KBY1 150634Z 09002KT 24/16 A3016 RMK A01 T02350160  RH  063%=      5-min Rain = 0
KBY1 150635Z 09003KT 24/16 A3016 RMK A01 T02350160  RH  063%=      5-min Rain = 0
KBY1 150636Z 09002KT 23/16 A3016 RMK A01 T02340160  RH  063%=      5-min Rain = 0
KBY1 150637Z 09003KT 23/16 A3016 RMK A01 T02340159  RH  063%=      5-min Rain = 0
KBY1 150638Z 09003KT 23/16 A3016 RMK A01 T02340160  RH  063%=      5-min Rain = 0
KBY1 150639Z 09003KT 23/16 A3016 RMK A01 T02340161  RH  064%=      5-min Rain = 0
KBY1 150640Z 10002KT 23/16 A3016 RMK A01 T02340161  RH  064%=      5-min Rain = 0
KBY1 150641Z 09003KT 23/16 A3016 RMK A01 T02340162  RH  064%=      5-min Rain = 0
KBY1 150642Z 10003KT 23/16 A3016 RMK A01 T02340161  RH  063%=      5-min Rain = 0
KBY1 150643Z 10003KT 23/16 A3017 RMK A01 T02340159  RH  063%=      5-min Rain = 0
KBY1 150644Z 10003KT 23/16 A3017 RMK A01 T02340159  RH  062%=      5-min Rain = 0
KBY1 150645Z 11003KT 24/16 A3017 RMK A01 T02350159  RH  062%=      5-min Rain = 0
KBY1 150646Z 10004KT 24/16 A3017 RMK A01 T02360158  RH  062%=      5-min Rain = 0
KBY1 150647Z 09003KT 24/16 A3017 RMK A01 T02370157  RH  061%=      5-min Rain = 0
KBY1 150648Z 09003KT 24/16 A3017 RMK A01 T02380158  RH  061%=      5-min Rain = 0
KBY1 150649Z 08002KT 24/16 A3017 RMK A01 T02380158  RH  061%=      5-min Rain = 0
KBY1 150650Z 09002KT 24/16 A3017 RMK A01 T02380160  RH  061%=      5-min Rain = 0
KBY1 150651Z 10002KT 24/16 A3017 RMK A01 T02380161  RH  062%=      5-min Rain = 0
KBY1 150652Z 11002KT 24/16 A3017 RMK A01 T02390163  RH  063%=      5-min Rain = 0
KBY1 150653Z 10002KT 24/16 A3017 RMK A01 T02390163  RH  063%=      5-min Rain = 0
KBY1 150654Z 09002KT 24/16 A3017 RMK A01 T02380164  RH  063%=      5-min Rain = 0
KBY1 150655Z 09002KT 24/16 A3017 RMK A01 T02380160  RH  062%=      5-min Rain = 0
KBY1 150656Z 08001KT 24/16 A3017 RMK A01 T02380161  RH  062%=      5-min Rain = 0
KBY1 150657Z 08001KT 24/16 A3017 RMK A01 T02380163  RH  063%=      5-min Rain = 0
KBY1 150658Z 10002KT 24/16 A3017 RMK A01 T02380164  RH  063%=      5-min Rain = 0
KBY1 150659Z 09002KT 24/16 A3017 RMK A01 T02380162  RH  062%=      5-min Rain = 0
KBY1 150700Z 09002KT 24/16 A3017 RMK A01 T02380161  RH  062%=      5-min Rain = 0
KBY1 150701Z 09003KT 24/16 A3017 RMK A01 T02380161  RH  062%=      5-min Rain = 0
KBY1 150702Z 09002KT 24/16 A3017 RMK A01 T02380161  RH  062%=      5-min Rain = 0
KBY1 150703Z 09002KT 24/16 A3017 RMK A01 T02380164  RH  063%=      5-min Rain = 0
KBY1 150704Z 10002KT 24/17 A3017 RMK A01 T02390167  RH  064%=      5-min Rain = 0
KBY1 150705Z 10002KT 24/16 A3017 RMK A01 T02380164  RH  063%=      5-min Rain = 0
KBY1 150706Z 11002KT 24/16 A3017 RMK A01 T02380164  RH  063%=      5-min Rain = 0
KBY1 150707Z 11002KT 24/17 A3018 RMK A01 T02380165  RH  063%=      5-min Rain = 0
KBY1 150708Z 11002KT 24/16 A3018 RMK A01 T02380161  RH  062%=      5-min Rain = 0
KBY1 150709Z 13002KT 24/16 A3018 RMK A01 T02390159  RH  061%=      5-min Rain = 0
KBY1 150710Z 12001KT 24/17 A3018 RMK A01 T02400165  RH  063%=      5-min Rain = 0
KBY1 150711Z 12000KT 24/17 A3018 RMK A01 T02400167  RH  063%=      5-min Rain = 0
KBY1 150712Z 11001KT 24/16 A3018 RMK A01 T02400164  RH  062%=      5-min Rain = 0
KBY1 150713Z 11001KT 24/16 A3018 RMK A01 T02400163  RH  062%=      5-min Rain = 0
KBY1 150714Z 10000KT 24/16 A3018 RMK A01 T02400160  RH  061%=      5-min Rain = 0
KBY1 150715Z 11001KT 24/16 A3018 RMK A01 T02400162  RH  062%=      5-min Rain = 0
KBY1 150716Z 10001KT 24/16 A3018 RMK A01 T02400162  RH  062%=      5-min Rain = 0
KBY1 150717Z 10001KT 24/16 A3018 RMK A01 T02410161  RH  061%=      5-min Rain = 0
KBY1 150718Z 10002KT 24/16 A3018 RMK A01 T02410162  RH  061%=      5-min Rain = 0
KBY1 150719Z 13001KT 24/16 A3018 RMK A01 T02410159  RH  060%=      5-min Rain = 0
KBY1 150720Z 11000KT 24/16 A3018 RMK A01 T02420161  RH  061%=      5-min Rain = 0
KBY1 150721Z 12000KT 24/16 A3019 RMK A01 T02420161  RH  060%=      5-min Rain = 0
KBY1 150722Z 00000KT 24/16 A3019 RMK A01 T02430159  RH  060%=      5-min Rain = 0
KBY1 150723Z 19000KT 24/16 A3019 RMK A01 T02430159  RH  059%=      5-min Rain = 0
KBY1 150724Z 19001KT 24/16 A3019 RMK A01 T02440161  RH  060%=      5-min Rain = 0
KBY1 150725Z 20002KT 24/16 A3019 RMK A01 T02440161  RH  060%=      5-min Rain = 0
KBY1 150726Z 20002KT 24/16 A3019 RMK A01 T02440160  RH  059%=      5-min Rain = 0
KBY1 150727Z 21002KT 24/16 A3019 RMK A01 T02430161  RH  060%=      5-min Rain = 0
KBY1 150728Z 22002KT 24/16 A3019 RMK A01 T02430161  RH  060%=      5-min Rain = 0
KBY1 150729Z 24003KT 24/16 A3019 RMK A01 T02430162  RH  061%=      5-min Rain = 0
KBY1 150730Z 23002KT 24/16 A3018 RMK A01 T02420162  RH  061%=      5-min Rain = 0
KBY1 150731Z 21002KT 24/16 A3018 RMK A01 T02410161  RH  061%=      5-min Rain = 0
KBY1 150732Z 22003KT 24/16 A3018 RMK A01 T02410160  RH  061%=      5-min Rain = 0
KBY1 150733Z 23003KT 24/16 A3018 RMK A01 T02410160  RH  061%=      5-min Rain = 0
KBY1 150734Z 21004KT 24/16 A3018 RMK A01 T02410160  RH  061%=      5-min Rain = 0
KBY1 150735Z 22004KT 24/16 A3018 RMK A01 T02410158  RH  060%=      5-min Rain = 0
KBY1 150736Z 23004KT 24/16 A3018 RMK A01 T02410159  RH  060%=      5-min Rain = 0
KBY1 150737Z 21006KT 24/16 A3018 RMK A01 T02410158  RH  060%=      5-min Rain = 0
KBY1 150738Z 22003KT 24/16 A3018 RMK A01 T02410160  RH  060%=      5-min Rain = 0
KBY1 150739Z 20002KT 24/16 A3018 RMK A01 T02410160  RH  061%=      5-min Rain = 0
KBY1 150740Z 18002KT 24/16 A3017 RMK A01 T02400162  RH  062%=      5-min Rain = 0
KBY1 150741Z 17004KT 24/16 A3017 RMK A01 T02390162  RH  062%=      5-min Rain = 0
KBY1 150742Z 16005KT 24/16 A3017 RMK A01 T02380162  RH  062%=      5-min Rain = 0
KBY1 150743Z 17006KT 24/16 A3017 RMK A01 T02380163  RH  063%=      5-min Rain = 0
KBY1 150744Z 16005KT 24/16 A3017 RMK A01 T02380162  RH  063%=      5-min Rain = 0
KBY1 150745Z 15004KT 24/16 A3017 RMK A01 T02370162  RH  063%=      5-min Rain = 0
KBY1 150746Z 16003KT 24/16 A3017 RMK A01 T02370162  RH  063%=      5-min Rain = 0
KBY1 150747Z 17003KT 24/16 A3017 RMK A01 T02370162  RH  063%=      5-min Rain = 0
KBY1 150748Z 19004KT 24/16 A3018 RMK A01 T02370161  RH  063%=      5-min Rain = 0
KBY1 150749Z 19005KT 24/16 A3018 RMK A01 T02370161  RH  062%=      5-min Rain = 0
KBY1 150750Z 20005KT 24/16 A3018 RMK A01 T02380159  RH  061%=      5-min Rain = 0
KBY1 150751Z 19007KT 24/16 A3018 RMK A01 T02400158  RH  060%=      5-min Rain = 0
KBY1 150752Z 18006KT 24/16 A3017 RMK A01 T02420158  RH  059%=      5-min Rain = 0
KBY1 150753Z 17005KT 24/16 A3017 RMK A01 T02430158  RH  059%=      5-min Rain = 0
KBY1 150754Z 18005KT 24/16 A3017 RMK A01 T02440157  RH  059%=      5-min Rain = 0
KBY1 150755Z 17006KT 24/16 A3017 RMK A01 T02440157  RH  058%=      5-min Rain = 0
KBY1 150756Z 18006KT 25/16 A3017 RMK A01 T02450158  RH  058%=      5-min Rain = 0
KBY1 150757Z 18006KT 25/16 A3017 RMK A01 T02450157  RH  058%=      5-min Rain = 0
KBY1 150758Z 19005KT 25/16 A3017 RMK A01 T02460157  RH  058%=      5-min Rain = 0
KBY1 150759Z 19005KT 25/16 A3017 RMK A01 T02460157  RH  058%=      5-min Rain = 0
KBY1 150800Z 19006KT 25/16 A3017 RMK A01 T02460158  RH  058%=      5-min Rain = 0
KBY1 150801Z 19005KT 25/16 A3017 RMK A01 T02460158  RH  058%=      5-min Rain = 0
KBY1 150802Z 18005KT 25/16 A3017 RMK A01 T02460158  RH  058%=      5-min Rain = 0
KBY1 150803Z 17005KT 25/16 A3017 RMK A01 T02450158  RH  058%=      5-min Rain = 0
KBY1 150804Z 16004KT 25/16 A3017 RMK A01 T02450158  RH  058%=      5-min Rain = 0
KBY1 150805Z 15004KT 25/16 A3016 RMK A01 T02450159  RH  059%=      5-min Rain = 0
KBY1 150806Z 14004KT 24/16 A3016 RMK A01 T02440158  RH  059%=      5-min Rain = 0
KBY1 150807Z 14004KT 24/16 A3016 RMK A01 T02440158  RH  059%=      5-min Rain = 0
KBY1 150808Z 13004KT 24/16 A3016 RMK A01 T02440158  RH  059%=      5-min Rain = 0
KBY1 150809Z 14004KT 24/16 A3016 RMK A01 T02430159  RH  059%=      5-min Rain = 0
KBY1 150810Z 15003KT 24/16 A3016 RMK A01 T02430159  RH  059%=      5-min Rain = 0
KBY1 150811Z 13003KT 24/16 A3016 RMK A01 T02430158  RH  059%=      5-min Rain = 0
KBY1 150812Z 13004KT 24/16 A3016 RMK A01 T02430159  RH  059%=      5-min Rain = 0
KBY1 150813Z 13004KT 24/16 A3016 RMK A01 T02430159  RH  059%=      5-min Rain = 0
KBY1 150814Z 14004KT 24/16 A3016 RMK A01 T02420158  RH  059%=      5-min Rain = 0
KBY1 150815Z 13004KT 24/16 A3016 RMK A01 T02440158  RH  059%=      5-min Rain = 0
KBY1 150816Z 14004KT 24/16 A3016 RMK A01 T02440159  RH  059%=      5-min Rain = 0
KBY1 150817Z 14004KT 25/16 A3016 RMK A01 T02450159  RH  059%=      5-min Rain = 0
KBY1 150818Z 13003KT 25/16 A3016 RMK A01 T02450159  RH  059%=      5-min Rain = 0
KBY1 150819Z 13004KT 25/16 A3016 RMK A01 T02450160  RH  059%=      5-min Rain = 0
KBY1 150820Z 13006KT 24/16 A3016 RMK A01 T02440159  RH  059%=      5-min Rain = 0
KBY1 150821Z 13003KT 25/16 A3016 RMK A01 T02450159  RH  059%=      5-min Rain = 0
KBY1 150822Z 12003KT 25/16 A3016 RMK A01 T02460159  RH  058%=      5-min Rain = 0
KBY1 150823Z 14004KT 25/16 A3016 RMK A01 T02460159  RH  059%=      5-min Rain = 0
KBY1 150824Z 13003KT 25/16 A3016 RMK A01 T02460159  RH  059%=      5-min Rain = 0
KBY1 150825Z 14003KT 25/16 A3016 RMK A01 T02460160  RH  059%=      5-min Rain = 0
KBY1 150826Z 13003KT 25/16 A3016 RMK A01 T02460160  RH  059%=      5-min Rain = 0
KBY1 150827Z 12003KT 25/16 A3016 RMK A01 T02450159  RH  059%=      5-min Rain = 0
KBY1 150828Z 11003KT 25/16 A3016 RMK A01 T02450161  RH  060%=      5-min Rain = 0
KBY1 150829Z 13003KT 24/16 A3015 RMK A01 T02430160  RH  060%=      5-min Rain = 0
KBY1 150830Z 13003KT 24/16 A3015 RMK A01 T02420160  RH  060%=      5-min Rain = 0
KBY1 150831Z 13003KT 24/16 A3015 RMK A01 T02420161  RH  061%=      5-min Rain = 0
KBY1 150832Z 14002KT 24/16 A3015 RMK A01 T02410161  RH  061%=      5-min Rain = 0
KBY1 150833Z 13002KT 24/16 A3015 RMK A01 T02400161  RH  061%=      5-min Rain = 0
KBY1 150834Z 14003KT 24/16 A3015 RMK A01 T02390161  RH  061%=      5-min Rain = 0
KBY1 150835Z 15003KT 24/16 A3015 RMK A01 T02390160  RH  061%=      5-min Rain = 0
KBY1 150836Z 14003KT 24/16 A3015 RMK A01 T02400159  RH  061%=      5-min Rain = 0
KBY1 150837Z 14003KT 24/16 A3015 RMK A01 T02400160  RH  061%=      5-min Rain = 0
KBY1 150838Z 14004KT 24/16 A3014 RMK A01 T02400161  RH  061%=      5-min Rain = 0
KBY1 150839Z 15003KT 24/16 A3014 RMK A01 T02400161  RH  061%=      5-min Rain = 0
KBY1 150840Z 16003KT 24/16 A3014 RMK A01 T02400161  RH  061%=      5-min Rain = 0
KBY1 150841Z 16003KT 24/16 A3014 RMK A01 T02390161  RH  062%=      5-min Rain = 0
KBY1 150842Z 17004KT 24/16 A3014 RMK A01 T02390161  RH  062%=      5-min Rain = 0
KBY1 150843Z 16002KT 24/16 A3014 RMK A01 T02390159  RH  061%=      5-min Rain = 0
KBY1 150844Z 14002KT 24/16 A3014 RMK A01 T02400160  RH  061%=      5-min Rain = 0
KBY1 150845Z 15002KT 24/16 A3014 RMK A01 T02400160  RH  061%=      5-min Rain = 0
KBY1 150846Z 15003KT 24/16 A3014 RMK A01 T02400161  RH  061%=      5-min Rain = 0
KBY1 150847Z 15003KT 24/16 A3014 RMK A01 T02400162  RH  062%=      5-min Rain = 0
KBY1 150848Z 16002KT 24/16 A3014 RMK A01 T02400162  RH  062%=      5-min Rain = 0
KBY1 150849Z 16002KT 24/16 A3014 RMK A01 T02390161  RH  062%=      5-min Rain = 0
KBY1 150850Z 16002KT 24/16 A3014 RMK A01 T02390161  RH  062%=      5-min Rain = 0
KBY1 150851Z 15001KT 24/16 A3014 RMK A01 T02390162  RH  062%=      5-min Rain = 0
KBY1 150852Z 15001KT 24/16 A3014 RMK A01 T02380162  RH  062%=      5-min Rain = 0
KBY1 150853Z 15001KT 24/16 A3014 RMK A01 T02380163  RH  063%=      5-min Rain = 0
KBY1 150854Z 15001KT 24/16 A3014 RMK A01 T02370162  RH  063%=      5-min Rain = 0
KBY1 150855Z 13001KT 24/16 A3014 RMK A01 T02360164  RH  064%=      5-min Rain = 0
KBY1 150856Z 14002KT 24/17 A3014 RMK A01 T02360165  RH  064%=      5-min Rain = 0
KBY1 150857Z 15002KT 24/17 A3014 RMK A01 T02350165  RH  065%=      5-min Rain = 0
KBY1 150858Z 10001KT 23/17 A3014 RMK A01 T02340169  RH  067%=      5-min Rain = 0
KBY1 150859Z 03000KT 23/16 A3014 RMK A01 T02320164  RH  065%=      5-min Rain = 0
KBY1 150900Z 07000KT 23/16 A3015 RMK A01 T02310163  RH  065%=      5-min Rain = 0
KBY1 150901Z 09001KT 23/16 A3015 RMK A01 T02310161  RH  065%=      5-min Rain = 0
KBY1 150902Z 10001KT 23/16 A3015 RMK A01 T02320161  RH  064%=      5-min Rain = 0
KBY1 150903Z 08002KT 23/16 A3015 RMK A01 T02330162  RH  064%=      5-min Rain = 0
KBY1 150904Z 07001KT 23/16 A3015 RMK A01 T02340162  RH  064%=      5-min Rain = 0
KBY1 150905Z 06001KT 23/16 A3015 RMK A01 T02340164  RH  065%=      5-min Rain = 0
KBY1 150906Z 01001KT 23/17 A3015 RMK A01 T02340165  RH  065%=      5-min Rain = 0
KBY1 150907Z 32000KT 23/16 A3015 RMK A01 T02330163  RH  065%=      5-min Rain = 0
KBY1 150908Z 00000KT 23/16 A3015 RMK A01 T02330161  RH  064%=      5-min Rain = 0
KBY1 150909Z 00000KT 24/16 A3015 RMK A01 T02350160  RH  063%=      5-min Rain = 0
KBY1 150910Z 16000KT 24/16 A3015 RMK A01 T02360160  RH  063%=      5-min Rain = 0
KBY1 150911Z 18000KT 24/16 A3015 RMK A01 T02360162  RH  063%=      5-min Rain = 0
KBY1 150912Z 00000KT 24/16 A3015 RMK A01 T02370162  RH  063%=      5-min Rain = 0
KBY1 150913Z 00000KT 24/16 A3015 RMK A01 T02370160  RH  062%=      5-min Rain = 0
KBY1 150914Z 00000KT 24/16 A3015 RMK A01 T02380163  RH  063%=      5-min Rain = 0
KBY1 150915Z 17001KT 24/16 A3015 RMK A01 T02380162  RH  062%=      5-min Rain = 0
KBY1 150916Z 20002KT 24/16 A3015 RMK A01 T02390159  RH  061%=      5-min Rain = 0
KBY1 150917Z 22000KT 24/16 A3015 RMK A01 T02410160  RH  061%=      5-min Rain = 0
KBY1 150918Z 04000KT 24/16 A3015 RMK A01 T02420162  RH  061%=      5-min Rain = 0
KBY1 150919Z 03001KT 24/16 A3015 RMK A01 T02420164  RH  062%=      5-min Rain = 0
KBY1 150920Z 04001KT 24/16 A3015 RMK A01 T02400164  RH  062%=      5-min Rain = 0
KBY1 150921Z 03002KT 24/16 A3015 RMK A01 T02390164  RH  063%=      5-min Rain = 0
KBY1 150922Z 03003KT 24/16 A3015 RMK A01 T02390164  RH  063%=      5-min Rain = 0
KBY1 150923Z 04003KT 24/17 A3015 RMK A01 T02390165  RH  063%=      5-min Rain = 0
KBY1 150924Z 05003KT 24/17 A3015 RMK A01 T02380166  RH  064%=      5-min Rain = 0
KBY1 150925Z 05004KT 24/17 A3015 RMK A01 T02380167  RH  065%=      5-min Rain = 0
KBY1 150926Z 04003KT 24/17 A3015 RMK A01 T02370166  RH  064%=      5-min Rain = 0
KBY1 150927Z 05004KT 24/17 A3015 RMK A01 T02370166  RH  064%=      5-min Rain = 0
KBY1 150928Z 05003KT 24/17 A3015 RMK A01 T02370166  RH  064%=      5-min Rain = 0
KBY1 150929Z 04003KT 24/17 A3015 RMK A01 T02370167  RH  064%=      5-min Rain = 0
KBY1 150930Z 05003KT 24/17 A3015 RMK A01 T02370167  RH  065%=      5-min Rain = 0
KBY1 150931Z 05004KT 24/17 A3015 RMK A01 T02370166  RH  064%=      5-min Rain = 0
KBY1 150932Z 05003KT 24/17 A3016 RMK A01 T02370166  RH  064%=      5-min Rain = 0
KBY1 150933Z 04003KT 24/17 A3016 RMK A01 T02370166  RH  064%=      5-min Rain = 0
KBY1 150934Z 04003KT 24/17 A3016 RMK A01 T02380166  RH  064%=      5-min Rain = 0
KBY1 150935Z 04003KT 24/17 A3016 RMK A01 T02380166  RH  064%=      5-min Rain = 0
KBY1 150936Z 04003KT 24/17 A3016 RMK A01 T02380168  RH  065%=      5-min Rain = 0
KBY1 150937Z 03002KT 24/17 A3016 RMK A01 T02380168  RH  065%=      5-min Rain = 0
KBY1 150938Z 04002KT 24/17 A3016 RMK A01 T02370167  RH  065%=      5-min Rain = 0
KBY1 150939Z 02002KT 24/17 A3016 RMK A01 T02370166  RH  064%=      5-min Rain = 0
KBY1 150940Z 02002KT 24/17 A3016 RMK A01 T02380166  RH  064%=      5-min Rain = 0
KBY1 150941Z 00002KT 24/17 A3016 RMK A01 T02370167  RH  065%=      5-min Rain = 0
KBY1 150942Z 01003KT 24/17 A3016 RMK A01 T02370168  RH  065%=      5-min Rain = 0
KBY1 150943Z 36003KT 24/17 A3017 RMK A01 T02370168  RH  065%=      5-min Rain = 0
KBY1 150944Z 35004KT 24/17 A3017 RMK A01 T02360169  RH  066%=      5-min Rain = 0
KBY1 150945Z 34004KT 24/17 A3017 RMK A01 T02360170  RH  066%=      5-min Rain = 0
KBY1 150946Z 34004KT 24/17 A3017 RMK A01 T02350169  RH  067%=      5-min Rain = 0
KBY1 150947Z 36004KT 23/17 A3017 RMK A01 T02340168  RH  066%=      5-min Rain = 0
KBY1 150948Z 35004KT 23/17 A3017 RMK A01 T02340168  RH  066%=      5-min Rain = 0
KBY1 150949Z 35004KT 23/17 A3017 RMK A01 T02340169  RH  067%=      5-min Rain = 0
KBY1 150950Z 35005KT 23/17 A3018 RMK A01 T02340169  RH  067%=      5-min Rain = 0
KBY1 150951Z 36005KT 23/17 A3017 RMK A01 T02340168  RH  067%=      5-min Rain = 0
KBY1 150952Z 01005KT 23/17 A3017 RMK A01 T02340168  RH  067%=      5-min Rain = 0
KBY1 150953Z 02005KT 23/17 A3017 RMK A01 T02340169  RH  067%=      5-min Rain = 0
KBY1 150954Z 01005KT 23/17 A3017 RMK A01 T02330169  RH  068%=      5-min Rain = 0
KBY1 150955Z 00004KT 23/17 A3017 RMK A01 T02320170  RH  068%=      5-min Rain = 0
KBY1 150956Z 00005KT 23/17 A3017 RMK A01 T02320169  RH  068%=      5-min Rain = 0
KBY1 150957Z 01005KT 23/17 A3017 RMK A01 T02320169  RH  068%=      5-min Rain = 0
KBY1 150958Z 01004KT 23/17 A3017 RMK A01 T02320169  RH  067%=      5-min Rain = 0
KBY1 150959Z 00003KT 23/17 A3017 RMK A01 T02320169  RH  067%=      5-min Rain = 0
KBY1 151000Z 36003KT 23/17 A3017 RMK A01 T02330169  RH  067%=      5-min Rain = 0
KBY1 151001Z 36003KT 23/17 A3017 RMK A01 T02330169  RH  067%=      5-min Rain = 0
KBY1 151002Z 01003KT 23/17 A3017 RMK A01 T02330170  RH  068%=      5-min Rain = 0
KBY1 151003Z 01003KT 23/17 A3017 RMK A01 T02330170  RH  068%=      5-min Rain = 0
KBY1 151004Z 02002KT 23/17 A3017 RMK A01 T02320169  RH  067%=      5-min Rain = 0
KBY1 151005Z 00001KT 23/17 A3017 RMK A01 T02320169  RH  068%=      5-min Rain = 0
KBY1 151006Z 01001KT 23/17 A3017 RMK A01 T02320170  RH  068%=      5-min Rain = 0
KBY1 151007Z 00000KT 23/17 A3017 RMK A01 T02320170  RH  068%=      5-min Rain = 0
KBY1 151008Z 03001KT 23/17 A3017 RMK A01 T02310170  RH  068%=      5-min Rain = 0
KBY1 151009Z 02001KT 23/17 A3017 RMK A01 T02310170  RH  068%=      5-min Rain = 0
KBY1 151010Z 02001KT 23/17 A3017 RMK A01 T02310172  RH  069%=      5-min Rain = 0
KBY1 151011Z 18000KT 23/17 A3017 RMK A01 T02300173  RH  070%=      5-min Rain = 0
KBY1 151012Z 19002KT 23/17 A3017 RMK A01 T02270173  RH  071%=      5-min Rain = 0
KBY1 151013Z 21001KT 23/17 A3017 RMK A01 T02250173  RH  072%=      5-min Rain = 0
KBY1 151014Z 22000KT 22/17 A3017 RMK A01 T02230173  RH  073%=      5-min Rain = 0
KBY1 151015Z 00000KT 22/17 A3017 RMK A01 T02220172  RH  073%=      5-min Rain = 0
KBY1 151016Z 00000KT 22/17 A3017 RMK A01 T02220172  RH  073%=      5-min Rain = 0
KBY1 151017Z 00000KT 22/17 A3017 RMK A01 T02220173  RH  074%=      5-min Rain = 0
KBY1 151018Z 00000KT 22/17 A3017 RMK A01 T02210174  RH  075%=      5-min Rain = 0
KBY1 151019Z 23000KT 22/17 A3017 RMK A01 T02210174  RH  075%=      5-min Rain = 0
KBY1 151020Z 05001KT 22/17 A3017 RMK A01 T02200174  RH  075%=      5-min Rain = 0
KBY1 151021Z 03001KT 22/18 A3018 RMK A01 T02190175  RH  076%=      5-min Rain = 0
KBY1 151022Z 04002KT 22/18 A3018 RMK A01 T02190177  RH  077%=      5-min Rain = 0
KBY1 151023Z 04003KT 22/18 A3018 RMK A01 T02190178  RH  078%=      5-min Rain = 0
KBY1 151024Z 03006KT 22/18 A3018 RMK A01 T02180175  RH  076%=      5-min Rain = 0
KBY1 151025Z 03009KT 22/17 A3019 RMK A01 T02210171  RH  073%=      5-min Rain = 0
KBY1 151026Z 03011KT 23/17 A3019 RMK A01 T02260170  RH  071%=      5-min Rain = 0
KBY1 151027Z 03013KT 23/17 A302 RMK A01 T02290170  RH  069%=      5-min Rain = 0
KBY1 151028Z 02014KT 23/17 A302 RMK A01 T02310170  RH  068%=      5-min Rain = 0
KBY1 151029Z 03020KT 23/17 A3021 RMK A01 T02320170  RH  068%=      5-min Rain = 0
KBY1 151030Z 03018KT 23/17 A3021 RMK A01 T02310169  RH  068%=      5-min Rain = 0
KBY1 151031Z 03018G24KT 23/17 A3021 RMK A01 T02290168  RH  068%=      5-min Rain = 0
KBY1 151032Z 04017KT 23/17 A3021 RMK A01 T02270168  RH  069%=      5-min Rain = 0
KBY1 151033Z 04017KT 23/17 A3021 RMK A01 T02250166  RH  069%=      5-min Rain = 0
KBY1 151034Z 04014G20KT 22/16 A3021 RMK A01 T02240163  RH  069%=      5-min Rain = 0
KBY1 151035Z 04013KT 22/16 A3021 RMK A01 T02220158  RH  067%=      5-min Rain = 0
KBY1 151036Z 06014KT 22/16 A3021 RMK A01 T02200156  RH  067%=      5-min Rain = 0
KBY1 151037Z 05011KT 22/15 A3021 RMK A01 T02190153  RH  066%=      5-min Rain = 0
KBY1 151038Z 06010KT 22/15 A3021 RMK A01 T02170150  RH  066%=      5-min Rain = 0
KBY1 151039Z 06013KT 22/15 A3021 RMK A01 T02170148  RH  065%=      5-min Rain = 0
KBY1 151040Z 06012G17KT 22/14 A3021 RMK A01 T02150144  RH  064%=      5-min Rain = 0
KBY1 151041Z 06012KT 21/14 A3021 RMK A01 T02140142  RH  063%=      5-min Rain = 0
KBY1 151042Z 05014KT 21/14 A3021 RMK A01 T02120139  RH  063%=      5-min Rain = 0
KBY1 151043Z 06014KT 21/14 A3021 RMK A01 T02110137  RH  062%=      5-min Rain = 0
KBY1 151044Z 07012G18KT 21/14 A302 RMK A01 T02090136  RH  063%=      5-min Rain = 0
KBY1 151045Z 06015KT 21/14 A302 RMK A01 T02080135  RH  063%=      5-min Rain = 0
KBY1 151046Z 05011G16KT 21/13 A302 RMK A01 T02060134  RH  063%=      5-min Rain = 0
KBY1 151047Z 06012KT 21/13 A302 RMK A01 T02050134  RH  064%=      5-min Rain = 0
KBY1 151048Z 06011KT 20/13 A302 RMK A01 T02040134  RH  064%=      5-min Rain = 0
KBY1 151049Z 06010KT 20/13 A302 RMK A01 T02040134  RH  064%=      5-min Rain = 0
KBY1 151050Z 06009G14KT 20/13 A302 RMK A01 T02030134  RH  064%=      5-min Rain = 0
KBY1 151051Z 08007KT 20/13 A302 RMK A01 T02030134  RH  065%=      5-min Rain = 0
KBY1 151052Z 08010KT 20/14 A302 RMK A01 T02020135  RH  065%=      5-min Rain = 0
KBY1 151053Z 07011KT 20/13 A302 RMK A01 T02020134  RH  065%=      5-min Rain = 0
KBY1 151054Z 07011KT 20/13 A302 RMK A01 T02010134  RH  065%=      5-min Rain = 0
KBY1 151055Z 07010KT 20/13 A302 RMK A01 T02010133  RH  065%=      5-min Rain = 0
KBY1 151056Z 05010KT 20/13 A302 RMK A01 T02010133  RH  065%=      5-min Rain = 0
KBY1 151057Z 06011KT 20/13 A302 RMK A01 T02010132  RH  064%=      5-min Rain = 0
KBY1 151058Z 07011G16KT 20/13 A302 RMK A01 T02010131  RH  064%=      5-min Rain = 0
KBY1 151059Z 05012KT 20/13 A302 RMK A01 T02010129  RH  063%=      5-min Rain = 0
KBY1 151100Z 07008KT 20/13 A302 RMK A01 T02010128  RH  063%=      5-min Rain = 0
KBY1 151101Z 07008KT 20/13 A302 RMK A01 T02000128  RH  063%=      5-min Rain = 0
KBY1 151102Z 07012KT 20/13 A302 RMK A01 T02000127  RH  063%=      5-min Rain = 0
KBY1 151103Z 07013KT 20/13 A302 RMK A01 T01990125  RH  063%=      5-min Rain = 0
KBY1 151104Z 07012KT 20/12 A302 RMK A01 T01980124  RH  063%=      5-min Rain = 0
KBY1 151105Z 08015KT 20/12 A302 RMK A01 T01970124  RH  063%=      5-min Rain = 0
KBY1 151106Z 07012KT 20/12 A302 RMK A01 T01960124  RH  063%=      5-min Rain = 0
KBY1 151107Z 06011KT 20/12 A302 RMK A01 T01950124  RH  063%=      5-min Rain = 0
KBY1 151108Z 06013G19KT 20/12 A302 RMK A01 T01950124  RH  064%=      5-min Rain = 0
KBY1 151109Z 06013KT 19/12 A302 RMK A01 T01940124  RH  064%=      5-min Rain = 0
KBY1 151110Z 07011KT 19/13 A302 RMK A01 T01940125  RH  064%=      5-min Rain = 0
KBY1 151111Z 08011KT 19/13 A302 RMK A01 T01930125  RH  065%=      5-min Rain = 0
KBY1 151112Z 08011KT 19/13 A302 RMK A01 T01920125  RH  065%=      5-min Rain = 0
KBY1 151113Z 08012KT 19/13 A302 RMK A01 T01910126  RH  066%=      5-min Rain = 0
KBY1 151114Z 08013KT 19/13 A302 RMK A01 T01910126  RH  066%=      5-min Rain = 0
KBY1 151115Z 09014KT 19/13 A302 RMK A01 T01910126  RH  066%=      5-min Rain = 0
KBY1 151116Z 08010KT 19/13 A302 RMK A01 T01900126  RH  066%=      5-min Rain = 0
KBY1 151117Z 08012G18KT 19/13 A302 RMK A01 T01900127  RH  067%=      5-min Rain = 0
KBY1 151118Z 09011KT 19/13 A302 RMK A01 T01900128  RH  067%=      5-min Rain = 0
KBY1 151119Z 10008KT 19/13 A302 RMK A01 T01900128  RH  067%=      5-min Rain = 0
KBY1 151120Z 10006KT 19/13 A302 RMK A01 T01890128  RH  067%=      5-min Rain = 0
KBY1 151121Z 11007KT 19/13 A302 RMK A01 T01890128  RH  068%=      5-min Rain = 0
KBY1 151122Z 11007KT 19/13 A302 RMK A01 T01880128  RH  068%=      5-min Rain = 0
KBY1 151123Z 12008KT 19/13 A302 RMK A01 T01880128  RH  068%=      5-min Rain = 0
KBY1 151124Z 11007KT 19/13 A302 RMK A01 T01880128  RH  068%=      5-min Rain = 0
KBY1 151125Z 12005KT 19/13 A302 RMK A01 T01880129  RH  069%=      5-min Rain = 0
KBY1 151126Z 12008KT 19/13 A302 RMK A01 T01870129  RH  069%=      5-min Rain = 0
KBY1 151127Z 11007KT 19/13 A3019 RMK A01 T01860129  RH  069%=      5-min Rain = 0
KBY1 151128Z 12006KT 19/13 A3019 RMK A01 T01860129  RH  070%=      5-min Rain = 0
KBY1 151129Z 12006KT 19/13 A3019 RMK A01 T01860130  RH  070%=      5-min Rain = 0
KBY1 151130Z 12006KT 19/13 A3019 RMK A01 T01850130  RH  070%=      5-min Rain = 0
KBY1 151131Z 12006KT 19/13 A3019 RMK A01 T01850130  RH  070%=      5-min Rain = 0
KBY1 151132Z 12006KT 19/13 A3019 RMK A01 T01850131  RH  071%=      5-min Rain = 0
KBY1 151133Z 12006KT 19/13 A3019 RMK A01 T01850131  RH  071%=      5-min Rain = 0
KBY1 151134Z 13005KT 18/13 A3019 RMK A01 T01840131  RH  071%=      5-min Rain = 0
KBY1 151135Z 12007KT 18/13 A3019 RMK A01 T01840131  RH  071%=      5-min Rain = 0
KBY1 151136Z 13006KT 18/13 A3019 RMK A01 T01840131  RH  071%=      5-min Rain = 0
KBY1 151137Z 12008KT 18/13 A3019 RMK A01 T01840132  RH  072%=      5-min Rain = 0
KBY1 151138Z 11007KT 18/13 A3019 RMK A01 T01830132  RH  072%=      5-min Rain = 0
KBY1 151139Z 11005KT 18/13 A3019 RMK A01 T01830132  RH  072%=      5-min Rain = 0
KBY1 151140Z 11005KT 18/13 A3019 RMK A01 T01830132  RH  072%=      5-min Rain = 0
KBY1 151141Z 13006KT 18/13 A3019 RMK A01 T01820132  RH  073%=      5-min Rain = 0
KBY1 151142Z 14006KT 18/13 A3019 RMK A01 T01820133  RH  073%=      5-min Rain = 0
KBY1 151143Z 14005KT 18/13 A302 RMK A01 T01810133  RH  073%=      5-min Rain = 0
KBY1 151144Z 14005KT 18/13 A302 RMK A01 T01810133  RH  074%=      5-min Rain = 0
KBY1 151145Z 14005KT 18/13 A302 RMK A01 T01800133  RH  074%=      5-min Rain = 0
KBY1 151146Z 13005KT 18/13 A302 RMK A01 T01790133  RH  074%=      5-min Rain = 0
KBY1 151147Z 13005KT 18/13 A302 RMK A01 T01790133  RH  074%=      5-min Rain = 0
KBY1 151148Z 14006KT 18/13 A302 RMK A01 T01790133  RH  075%=      5-min Rain = 0
KBY1 151149Z 15005KT 18/13 A302 RMK A01 T01790133  RH  075%=      5-min Rain = 0
KBY1 151150Z 16005KT 18/13 A302 RMK A01 T01790133  RH  075%=      5-min Rain = 0
KBY1 151151Z 17005KT 18/13 A302 RMK A01 T01780133  RH  075%=      5-min Rain = 0
KBY1 151152Z 17005KT 18/13 A302 RMK A01 T01780134  RH  075%=      5-min Rain = 0
KBY1 151153Z 18005KT 18/13 A302 RMK A01 T01770134  RH  076%=      5-min Rain = 0
KBY1 151154Z 18005KT 18/13 A302 RMK A01 T01770134  RH  076%=      5-min Rain = 0
KBY1 151155Z 17005KT 18/13 A302 RMK A01 T01760134  RH  076%=      5-min Rain = 0
KBY1 151156Z 16006KT 18/13 A302 RMK A01 T01760134  RH  076%=      5-min Rain = 0
KBY1 151157Z 16006KT 18/13 A302 RMK A01 T01760134  RH  076%=      5-min Rain = 0
KBY1 151158Z 16006KT 18/13 A302 RMK A01 T01760134  RH  076%=      5-min Rain = 0
KBY1 151159Z 15004KT 18/13 A302 RMK A01 T01760134  RH  077%=      5-min Rain = 0
KBY1 151200Z 16004KT 18/13 A302 RMK A01 T01750134  RH  077%=      5-min Rain = 0
KBY1 151201Z 15004KT 18/13 A302 RMK A01 T01750134  RH  077%=      5-min Rain = 0
KBY1 151202Z 15005KT 18/13 A3021 RMK A01 T01750133  RH  076%=      5-min Rain = 0
KBY1 151203Z 16004KT 18/13 A3021 RMK A01 T01760133  RH  076%=      5-min Rain = 0
KBY1 151204Z 17003KT 18/13 A3021 RMK A01 T01770134  RH  076%=      5-min Rain = 0
KBY1 151205Z 17003KT 18/13 A3021 RMK A01 T01770134  RH  076%=      5-min Rain = 0
KBY1 151206Z 17002KT 18/13 A3021 RMK A01 T01770134  RH  076%=      5-min Rain = 0
KBY1 151207Z 15002KT 18/13 A3021 RMK A01 T01770134  RH  076%=      5-min Rain = 0
KBY1 151208Z 16002KT 18/13 A3021 RMK A01 T01770134  RH  076%=      5-min Rain = 0
KBY1 151209Z 16002KT 18/13 A3021 RMK A01 T01770134  RH  076%=      5-min Rain = 0
KBY1 151210Z 17002KT 18/13 A3021 RMK A01 T01770134  RH  076%=      5-min Rain = 0
KBY1 151211Z 17002KT 18/13 A3021 RMK A01 T01760134  RH  076%=      5-min Rain = 0
KBY1 151212Z 17003KT 18/13 A3021 RMK A01 T01760133  RH  076%=      5-min Rain = 0
KBY1 151213Z 17003KT 18/13 A3021 RMK A01 T01760133  RH  076%=      5-min Rain = 0
KBY1 151214Z 16002KT 18/13 A3021 RMK A01 T01760134  RH  076%=      5-min Rain = 0
KBY1 151215Z 15002KT 18/13 A3021 RMK A01 T01760132  RH  076%=      5-min Rain = 0
KBY1 151216Z 14002KT 18/13 A3021 RMK A01 T01770132  RH  075%=      5-min Rain = 0
KBY1 151217Z 16002KT 18/13 A3021 RMK A01 T01780133  RH  075%=      5-min Rain = 0
KBY1 151218Z 16003KT 18/13 A3021 RMK A01 T01780133  RH  075%=      5-min Rain = 0
KBY1 151219Z 15004KT 18/13 A3021 RMK A01 T01790132  RH  074%=      5-min Rain = 0
KBY1 151220Z 15003KT 18/13 A3021 RMK A01 T01790133  RH  074%=      5-min Rain = 0
KBY1 151221Z 16003KT 18/13 A3021 RMK A01 T01790133  RH  075%=      5-min Rain = 0
KBY1 151222Z 14003KT 18/13 A3021 RMK A01 T01790134  RH  075%=      5-min Rain = 0
KBY1 151223Z 15005KT 18/13 A3021 RMK A01 T01780134  RH  075%=      5-min Rain = 0
KBY1 151224Z 14005KT 18/13 A3021 RMK A01 T01780134  RH  076%=      5-min Rain = 0
KBY1 151225Z 14005KT 18/14 A3021 RMK A01 T01770135  RH  076%=      5-min Rain = 0
KBY1 151226Z 14005KT 18/14 A3021 RMK A01 T01770135  RH  076%=      5-min Rain = 0
KBY1 151227Z 14005KT 18/14 A3021 RMK A01 T01770135  RH  077%=      5-min Rain = 0
KBY1 151228Z 14006KT 18/13 A3021 RMK A01 T01760134  RH  076%=      5-min Rain = 0
KBY1 151229Z 15005KT 18/13 A3021 RMK A01 T01770134  RH  076%=      5-min Rain = 0
KBY1 151230Z 15005KT 18/14 A3021 RMK A01 T01770135  RH  076%=      5-min Rain = 0
KBY1 151231Z 16005KT 18/14 A3021 RMK A01 T01770135  RH  076%=      5-min Rain = 0
KBY1 151232Z 16005KT 18/14 A3021 RMK A01 T01780135  RH  076%=      5-min Rain = 0
KBY1 151233Z 16005KT 18/14 A3021 RMK A01 T01780135  RH  076%=      5-min Rain = 0
KBY1 151234Z 16006KT 18/13 A3021 RMK A01 T01780134  RH  075%=      5-min Rain = 0
KBY1 151235Z 16005KT 18/14 A3021 RMK A01 T01790135  RH  076%=      5-min Rain = 0
KBY1 151236Z 16005KT 18/14 A3021 RMK A01 T01790136  RH  076%=      5-min Rain = 0
KBY1 151237Z 16005KT 18/14 A3021 RMK A01 T01790135  RH  076%=      5-min Rain = 0
KBY1 151238Z 16005KT 18/14 A3021 RMK A01 T01790135  RH  075%=      5-min Rain = 0
KBY1 151239Z 16004KT 18/14 A3021 RMK A01 T01800135  RH  075%=      5-min Rain = 0
KBY1 151240Z 17004KT 18/13 A3021 RMK A01 T01810134  RH  074%=      5-min Rain = 0
KBY1 151241Z 17004KT 18/14 A3021 RMK A01 T01830135  RH  074%=      5-min Rain = 0
KBY1 151242Z 17003KT 18/14 A3021 RMK A01 T01840135  RH  073%=      5-min Rain = 0
KBY1 151243Z 17003KT 18/13 A3021 RMK A01 T01840134  RH  073%=      5-min Rain = 0
KBY1 151244Z 17002KT 19/14 A3021 RMK A01 T01850135  RH  073%=      5-min Rain = 0
KBY1 151245Z 16002KT 19/14 A3021 RMK A01 T01850135  RH  073%=      5-min Rain = 0
KBY1 151246Z 16003KT 19/14 A3021 RMK A01 T01860135  RH  072%=      5-min Rain = 0
KBY1 151247Z 16001KT 19/14 A3021 RMK A01 T01870136  RH  072%=      5-min Rain = 0
KBY1 151248Z 17002KT 19/14 A3021 RMK A01 T01880135  RH  071%=      5-min Rain = 0
KBY1 151249Z 17002KT 19/14 A3021 RMK A01 T01880135  RH  071%=      5-min Rain = 0
KBY1 151250Z 14002KT 19/14 A3021 RMK A01 T01880136  RH  072%=      5-min Rain = 0
KBY1 151251Z 15002KT 19/14 A3021 RMK A01 T01880135  RH  071%=      5-min Rain = 0
KBY1 151252Z 15003KT 19/14 A3021 RMK A01 T01890136  RH  071%=      5-min Rain = 0
KBY1 151253Z 15004KT 19/14 A3021 RMK A01 T01890136  RH  071%=      5-min Rain = 0
KBY1 151254Z 15005KT 19/13 A3021 RMK A01 T01900134  RH  070%=      5-min Rain = 0
KBY1 151255Z 14004KT 19/13 A3021 RMK A01 T01910134  RH  070%=      5-min Rain = 0
KBY1 151256Z 15005KT 19/14 A3021 RMK A01 T01920135  RH  070%=      5-min Rain = 0
KBY1 151257Z 14004KT 19/14 A3021 RMK A01 T01920136  RH  070%=      5-min Rain = 0
KBY1 151258Z 16003KT 19/14 A3021 RMK A01 T01930137  RH  070%=      5-min Rain = 0
KBY1 151259Z 14003KT 19/14 A3021 RMK A01 T01940138  RH  070%=      5-min Rain = 0
KBY1 151300Z 13003KT 20/14 A3021 RMK A01 T01950139  RH  070%=      5-min Rain = 0
KBY1 151301Z 13003KT 20/14 A3021 RMK A01 T01960138  RH  069%=      5-min Rain = 0
KBY1 151302Z 13006KT 20/14 A3021 RMK A01 T01970137  RH  068%=      5-min Rain = 0
KBY1 151303Z 12006KT 20/14 A3021 RMK A01 T01970137  RH  068%=      5-min Rain = 0
KBY1 151304Z 12005KT 20/14 A302 RMK A01 T01970137  RH  068%=      5-min Rain = 0
KBY1 151305Z 12004KT 20/14 A302 RMK A01 T01970138  RH  069%=      5-min Rain = 0
KBY1 151306Z 11004KT 20/14 A302 RMK A01 T01970138  RH  069%=      5-min Rain = 0
KBY1 151307Z 11005KT 20/14 A302 RMK A01 T01980139  RH  069%=      5-min Rain = 0
KBY1 151308Z 13005KT 20/14 A302 RMK A01 T01990139  RH  068%=      5-min Rain = 0
KBY1 151309Z 14006KT 20/14 A302 RMK A01 T01990138  RH  068%=      5-min Rain = 0
KBY1 151310Z 13004KT 20/14 A302 RMK A01 T01990138  RH  068%=      5-min Rain = 0
KBY1 151311Z 13003KT 20/14 A302 RMK A01 T01990139  RH  068%=      5-min Rain = 0
KBY1 151312Z 14003KT 20/14 A302 RMK A01 T02000140  RH  068%=      5-min Rain = 0
KBY1 151313Z 12004KT 20/14 A302 RMK A01 T02010140  RH  068%=      5-min Rain = 0
KBY1 151314Z 14005KT 20/14 A302 RMK A01 T02020139  RH  067%=      5-min Rain = 0
KBY1 151315Z 12004KT 20/14 A302 RMK A01 T02020139  RH  067%=      5-min Rain = 0
KBY1 151316Z 12005KT 20/14 A302 RMK A01 T02020139  RH  067%=      5-min Rain = 0
KBY1 151317Z 14004KT 20/14 A302 RMK A01 T02030140  RH  067%=      5-min Rain = 0
KBY1 151318Z 14005KT 20/14 A302 RMK A01 T02040140  RH  067%=      5-min Rain = 0
KBY1 151319Z 14006KT 20/14 A302 RMK A01 T02040140  RH  066%=      5-min Rain = 0
KBY1 151320Z 13006KT 20/14 A302 RMK A01 T02040140  RH  066%=      5-min Rain = 0
KBY1 151321Z 13005KT 20/14 A302 RMK A01 T02040139  RH  066%=      5-min Rain = 0
KBY1 151322Z 12005KT 20/14 A302 RMK A01 T02040139  RH  066%=      5-min Rain = 0
KBY1 151323Z 14005KT 21/14 A302 RMK A01 T02050140  RH  066%=      5-min Rain = 0
KBY1 151324Z 13004KT 21/14 A302 RMK A01 T02050139  RH  066%=      5-min Rain = 0
KBY1 151325Z 14005KT 21/14 A302 RMK A01 T02060140  RH  066%=      5-min Rain = 0
KBY1 151326Z 14004KT 21/14 A302 RMK A01 T02060140  RH  066%=      5-min Rain = 0
KBY1 151327Z 14004KT 21/14 A302 RMK A01 T02070141  RH  066%=      5-min Rain = 0
KBY1 151328Z 15005KT 21/14 A302 RMK A01 T02070140  RH  065%=      5-min Rain = 0
KBY1 151329Z 12004KT 21/14 A302 RMK A01 T02080141  RH  065%=      5-min Rain = 0
KBY1 151330Z 12005KT 21/14 A302 RMK A01 T02090140  RH  065%=      5-min Rain = 0
KBY1 151331Z 11006KT 21/14 A302 RMK A01 T02090139  RH  064%=      5-min Rain = 0
KBY1 151332Z 16005KT 21/14 A302 RMK A01 T02090140  RH  065%=      5-min Rain = 0
KBY1 151333Z 15006KT 21/14 A302 RMK A01 T02100139  RH  064%=      5-min Rain = 0
KBY1 151334Z 12006KT 21/14 A302 RMK A01 T02100139  RH  064%=      5-min Rain = 0
KBY1 151335Z 13004KT 21/14 A302 RMK A01 T02100139  RH  064%=      5-min Rain = 0
KBY1 151336Z 13005KT 21/14 A302 RMK A01 T02100139  RH  064%=      5-min Rain = 0
KBY1 151337Z 11005KT 21/14 A302 RMK A01 T02110140  RH  064%=      5-min Rain = 0
KBY1 151338Z 11005KT 21/14 A302 RMK A01 T02110141  RH  064%=      5-min Rain = 0
KBY1 151339Z 14005KT 21/14 A302 RMK A01 T02120140  RH  063%=      5-min Rain = 0
KBY1 151340Z 13006KT 21/14 A302 RMK A01 T02130141  RH  063%=      5-min Rain = 0
KBY1 151341Z 12004KT 22/14 A302 RMK A01 T02150141  RH  063%=      5-min Rain = 0
KBY1 151342Z 14005KT 22/14 A302 RMK A01 T02160141  RH  062%=      5-min Rain = 0
KBY1 151343Z 14006KT 22/14 A302 RMK A01 T02170139  RH  061%=      5-min Rain = 0
KBY1 151344Z 14005KT 22/14 A302 RMK A01 T02170141  RH  062%=      5-min Rain = 0
KBY1 151345Z 13006KT 22/14 A302 RMK A01 T02170139  RH  061%=      5-min Rain = 0
KBY1 151346Z 12005KT 22/14 A302 RMK A01 T02170139  RH  061%=      5-min Rain = 0
KBY1 151347Z 11004KT 22/14 A302 RMK A01 T02180139  RH  061%=      5-min Rain = 0
KBY1 151348Z 14004KT 22/14 A302 RMK A01 T02190141  RH  061%=      5-min Rain = 0
KBY1 151349Z 14006KT 22/14 A302 RMK A01 T02200139  RH  060%=      5-min Rain = 0
KBY1 151350Z 14006KT 22/14 A302 RMK A01 T02210139  RH  060%=      5-min Rain = 0
KBY1 151351Z 13003KT 22/14 A302 RMK A01 T02220140  RH  060%=      5-min Rain = 0
KBY1 151352Z 12005KT 22/14 A302 RMK A01 T02240142  RH  060%=      5-min Rain = 0
KBY1 151353Z 14004KT 23/14 A302 RMK A01 T02260140  RH  058%=      5-min Rain = 0
KBY1 151354Z 15003KT 23/14 A302 RMK A01 T02270141  RH  058%=      5-min Rain = 0
KBY1 151355Z 16005KT 23/14 A302 RMK A01 T02280140  RH  058%=      5-min Rain = 0
KBY1 151356Z 14005KT 23/14 A302 RMK A01 T02290139  RH  057%=      5-min Rain = 0
KBY1 151357Z 14006KT 23/14 A302 RMK A01 T02280140  RH  057%=      5-min Rain = 0
KBY1 151358Z 14005KT 23/14 A302 RMK A01 T02290139  RH  057%=      5-min Rain = 0
KBY1 151359Z 16004KT 23/14 A302 RMK A01 T02290140  RH  057%=      5-min Rain = 0
KBY1 151400Z 16004KT 23/14 A302 RMK A01 T02300141  RH  057%=      5-min Rain = 0
KBY1 151401Z 16004KT 23/14 A302 RMK A01 T02320142  RH  057%=      5-min Rain = 0
KBY1 151402Z 17005KT 23/14 A302 RMK A01 T02330140  RH  056%=      5-min Rain = 0
KBY1 151403Z 16005KT 23/14 A302 RMK A01 T02330139  RH  056%=      5-min Rain = 0
KBY1 151404Z 16005KT 23/14 A302 RMK A01 T02320139  RH  056%=      5-min Rain = 0
KBY1 151405Z 16005KT 23/14 A302 RMK A01 T02310138  RH  056%=      5-min Rain = 0
KBY1 151406Z 15005KT 23/14 A302 RMK A01 T02310137  RH  055%=      5-min Rain = 0
KBY1 151407Z 15003KT 23/14 A302 RMK A01 T02310137  RH  055%=      5-min Rain = 0
KBY1 151408Z 11003KT 23/14 A302 RMK A01 T02310138  RH  056%=      5-min Rain = 0
KBY1 151409Z 12003KT 23/14 A302 RMK A01 T02320138  RH  055%=      5-min Rain = 0
KBY1 151410Z 13004KT 23/14 A3019 RMK A01 T02330138  RH  055%=      5-min Rain = 0
KBY1 151411Z 12004KT 23/14 A3019 RMK A01 T02330137  RH  055%=      5-min Rain = 0
KBY1 151412Z 12004KT 23/14 A3019 RMK A01 T02340137  RH  054%=      5-min Rain = 0
KBY1 151413Z 13004KT 24/14 A3019 RMK A01 T02350138  RH  055%=      5-min Rain = 0
KBY1 151414Z 14003KT 24/14 A3019 RMK A01 T02360137  RH  054%=      5-min Rain = 0
KBY1 151415Z 15003KT 24/14 A3019 RMK A01 T02360137  RH  054%=      5-min Rain = 0
KBY1 151416Z 15003KT 24/14 A3019 RMK A01 T02370137  RH  053%=      5-min Rain = 0
KBY1 151417Z 15003KT 24/14 A3019 RMK A01 T02380136  RH  053%=      5-min Rain = 0
KBY1 151418Z 14004KT 24/14 A3019 RMK A01 T02380136  RH  053%=      5-min Rain = 0
KBY1 151419Z 14002KT 24/13 A3019 RMK A01 T02390134  RH  052%=      5-min Rain = 0
KBY1 151420Z 16002KT 24/14 A3019 RMK A01 T02400136  RH  052%=      5-min Rain = 0
KBY1 151421Z 18003KT 24/14 A3019 RMK A01 T02420135  RH  051%=      5-min Rain = 0
KBY1 151422Z 17002KT 24/14 A3019 RMK A01 T02430137  RH  052%=      5-min Rain = 0
KBY1 151423Z 17002KT 24/14 A3019 RMK A01 T02440137  RH  051%=      5-min Rain = 0
KBY1 151424Z 19001KT 25/14 A3019 RMK A01 T02450135  RH  050%=      5-min Rain = 0
KBY1 151425Z 21002KT 25/13 A3019 RMK A01 T02450133  RH  050%=      5-min Rain = 0
KBY1 151426Z 31001KT 25/13 A3019 RMK A01 T02450133  RH  050%=      5-min Rain = 0
KBY1 151427Z 09001KT 25/14 A3019 RMK A01 T02460135  RH  050%=      5-min Rain = 0
KBY1 151428Z 11002KT 25/14 A3018 RMK A01 T02480135  RH  049%=      5-min Rain = 0
KBY1 151429Z 12001KT 25/14 A3018 RMK A01 T02500135  RH  049%=      5-min Rain = 0
KBY1 151430Z 09002KT 25/14 A3018 RMK A01 T02520135  RH  048%=      5-min Rain = 0
KBY1 151431Z 09001KT 25/14 A3018 RMK A01 T02530135  RH  048%=      5-min Rain = 0
KBY1 151432Z 04002KT 25/14 A3018 RMK A01 T02540137  RH  048%=      5-min Rain = 0
KBY1 151433Z 05003KT 26/14 A3018 RMK A01 T02550135  RH  048%=      5-min Rain = 0
KBY1 151434Z 05002KT 26/14 A3018 RMK A01 T02550137  RH  048%=      5-min Rain = 0
KBY1 151435Z 06004KT 26/14 A3018 RMK A01 T02550137  RH  048%=      5-min Rain = 0
KBY1 151436Z 06002KT 26/13 A3018 RMK A01 T02560133  RH  047%=      5-min Rain = 0
KBY1 151437Z 04003KT 26/14 A3018 RMK A01 T02560136  RH  047%=      5-min Rain = 0
KBY1 151438Z 05003KT 26/14 A3018 RMK A01 T02580135  RH  047%=      5-min Rain = 0
KBY1 151439Z 03003KT 26/13 A3018 RMK A01 T02590134  RH  046%=      5-min Rain = 0
KBY1 151440Z 02003KT 26/14 A3018 RMK A01 T02580135  RH  046%=      5-min Rain = 0
KBY1 151441Z 06003KT 26/14 A3018 RMK A01 T02580137  RH  047%=      5-min Rain = 0
KBY1 151442Z 08002KT 26/13 A3018 RMK A01 T02600134  RH  046%=      5-min Rain = 0
KBY1 151443Z 13001KT 26/13 A3018 RMK A01 T02600134  RH  046%=      5-min Rain = 0
KBY1 151444Z 06001KT 26/13 A3018 RMK A01 T02600134  RH  046%=      5-min Rain = 0
KBY1 151445Z 36000KT 26/14 A3017 RMK A01 T02610135  RH  046%=      5-min Rain = 0
KBY1 151446Z 03001KT 26/14 A3017 RMK A01 T02630135  RH  045%=      5-min Rain = 0
KBY1 151447Z 04001KT 26/14 A3017 RMK A01 T02640136  RH  045%=      5-min Rain = 0
KBY1 151448Z 06000KT 27/14 A3017 RMK A01 T02660136  RH  044%=      5-min Rain = 0
KBY1 151449Z 12000KT 27/14 A3017 RMK A01 T02680137  RH  045%=      5-min Rain = 0
KBY1 151450Z 20001KT 27/14 A3017 RMK A01 T02700139  RH  045%=      5-min Rain = 0
KBY1 151451Z 23001KT 27/14 A3017 RMK A01 T02710137  RH  044%=      5-min Rain = 0
KBY1 151452Z 29000KT 27/14 A3017 RMK A01 T02710139  RH  044%=      5-min Rain = 0
KBY1 151453Z 02000KT 27/14 A3017 RMK A01 T02710139  RH  044%=      5-min Rain = 0
KBY1 151454Z 18001KT 27/14 A3017 RMK A01 T02710141  RH  045%=      5-min Rain = 0
KBY1 151455Z 20006KT 27/14 A3017 RMK A01 T02730142  RH  044%=      5-min Rain = 0
KBY1 151456Z 19006KT 28/14 A3017 RMK A01 T02750143  RH  045%=      5-min Rain = 0
KBY1 151457Z 20006KT 28/15 A3017 RMK A01 T02760145  RH  045%=      5-min Rain = 0
KBY1 151458Z 21006KT 28/14 A3017 RMK A01 T02780144  RH  044%=      5-min Rain = 0
KBY1 151459Z 19005KT 28/15 A3017 RMK A01 T02780145  RH  044%=      5-min Rain = 0
KBY1 151500Z 16007KT 28/15 A3017 RMK A01 T02780146  RH  044%=      5-min Rain = 0
KBY1 151501Z 14007KT 28/15 A3016 RMK A01 T02790146  RH  044%=      5-min Rain = 0
KBY1 151502Z 16005KT 28/15 A3016 RMK A01 T02810148  RH  044%=      5-min Rain = 0
KBY1 151503Z 18007KT 28/15 A3016 RMK A01 T02830149  RH  044%=      5-min Rain = 0
KBY1 151504Z 19007KT 28/15 A3016 RMK A01 T02840147  RH  043%=      5-min Rain = 0
KBY1 151505Z 20006KT 29/15 A3016 RMK A01 T02850149  RH  044%=      5-min Rain = 0
KBY1 151506Z 17007KT 29/15 A3016 RMK A01 T02860150  RH  044%=      5-min Rain = 0
KBY1 151507Z 15008KT 29/15 A3016 RMK A01 T02860148  RH  043%=      5-min Rain = 0
KBY1 151508Z 15008KT 29/15 A3016 RMK A01 T02860147  RH  043%=      5-min Rain = 0
KBY1 151509Z 16007KT 29/15 A3016 RMK A01 T02870148  RH  043%=      5-min Rain = 0
KBY1 151510Z 19005KT 29/15 A3016 RMK A01 T02880151  RH  043%=      5-min Rain = 0
KBY1 151511Z 17006KT 29/15 A3016 RMK A01 T02900149  RH  042%=      5-min Rain = 0
KBY1 151512Z 17006KT 29/15 A3016 RMK A01 T02900147  RH  042%=      5-min Rain = 0
KBY1 151513Z 18008KT 29/15 A3016 RMK A01 T02900148  RH  042%=      5-min Rain = 0
KBY1 151514Z 18007G12KT 29/15 A3016 RMK A01 T02890147  RH  042%=      5-min Rain = 0
KBY1 151515Z 17009KT 29/15 A3016 RMK A01 T02890147  RH  042%=      5-min Rain = 0
KBY1 151516Z 18009KT 29/14 A3016 RMK A01 T02900142  RH  040%=      5-min Rain = 0
KBY1 151517Z 17008KT 29/14 A3016 RMK A01 T02900141  RH  040%=      5-min Rain = 0
KBY1 151518Z 19007KT 29/14 A3016 RMK A01 T02890143  RH  041%=      5-min Rain = 0
KBY1 151519Z 19007KT 29/14 A3016 RMK A01 T02890140  RH  040%=      5-min Rain = 0
KBY1 151520Z 20006KT 29/14 A3016 RMK A01 T02880143  RH  041%=      5-min Rain = 0
KBY1 151521Z 17009G14KT 29/15 A3016 RMK A01 T02900145  RH  041%=      5-min Rain = 0
KBY1 151522Z 18008KT 29/14 A3016 RMK A01 T02920142  RH  040%=      5-min Rain = 0
KBY1 151523Z 16006KT 29/14 A3016 RMK A01 T02920142  RH  040%=      5-min Rain = 0
KBY1 151524Z 17006KT 29/14 A3016 RMK A01 T02920140  RH  039%=      5-min Rain = 0
KBY1 151525Z 17006KT 29/14 A3015 RMK A01 T02930142  RH  040%=      5-min Rain = 0
KBY1 151526Z 16008KT 29/15 A3015 RMK A01 T02920145  RH  041%=      5-min Rain = 0
KBY1 151527Z 18007KT 29/15 A3015 RMK A01 T02930148  RH  041%=      5-min Rain = 0
KBY1 151528Z 19010KT 30/15 A3015 RMK A01 T02950147  RH  040%=      5-min Rain = 0
KBY1 151529Z 19009KT 30/15 A3015 RMK A01 T02950147  RH  040%=      5-min Rain = 0
KBY1 151530Z 18011KT 30/15 A3015 RMK A01 T02950147  RH  041%=      5-min Rain = 0
KBY1 151531Z 19011KT 30/15 A3015 RMK A01 T02950147  RH  040%=      5-min Rain = 0
KBY1 151532Z 18011KT 30/15 A3015 RMK A01 T02950147  RH  041%=      5-min Rain = 0
KBY1 151533Z 18011KT 30/15 A3015 RMK A01 T02950147  RH  040%=      5-min Rain = 0
KBY1 151534Z 18010KT 30/15 A3015 RMK A01 T02950147  RH  040%=      5-min Rain = 0
KBY1 151535Z 18009KT 30/15 A3015 RMK A01 T02950148  RH  041%=      5-min Rain = 0
KBY1 151536Z 18007KT 30/15 A3015 RMK A01 T02950147  RH  040%=      5-min Rain = 0
KBY1 151537Z 19009KT 30/15 A3015 RMK A01 T02960147  RH  040%=      5-min Rain = 0
KBY1 151538Z 19011KT 30/15 A3015 RMK A01 T02960147  RH  040%=      5-min Rain = 0
KBY1 151539Z 20011G16KT 30/15 A3015 RMK A01 T02970146  RH  040%=      5-min Rain = 0
KBY1 151540Z 19014KT 30/15 A3015 RMK A01 T02970145  RH  040%=      5-min Rain = 0
KBY1 151541Z 19011KT 30/14 A3015 RMK A01 T02970144  RH  039%=      5-min Rain = 0
KBY1 151542Z 19010KT 30/14 A3015 RMK A01 T02960144  RH  039%=      5-min Rain = 0
KBY1 151543Z 19005KT 30/15 A3015 RMK A01 T02950145  RH  040%=      5-min Rain = 0
KBY1 151544Z 19008KT 30/15 A3015 RMK A01 T02970147  RH  040%=      5-min Rain = 0
KBY1 151545Z 21009KT 30/15 A3015 RMK A01 T02990148  RH  040%=      5-min Rain = 0
KBY1 151546Z 22013KT 30/14 A3015 RMK A01 T03000143  RH  038%=      5-min Rain = 0
KBY1 151547Z 21011KT 30/14 A3015 RMK A01 T02980143  RH  039%=      5-min Rain = 0
KBY1 151548Z 20009KT 30/14 A3014 RMK A01 T02980142  RH  039%=      5-min Rain = 0
KBY1 151549Z 21012KT 30/14 A3014 RMK A01 T02980142  RH  038%=      5-min Rain = 0
KBY1 151550Z 21009KT 30/14 A3014 RMK A01 T02980143  RH  039%=      5-min Rain = 0
KBY1 151551Z 22009KT 30/15 A3014 RMK A01 T03000145  RH  039%=      5-min Rain = 0
KBY1 151552Z 22011KT 30/15 A3014 RMK A01 T03030145  RH  038%=      5-min Rain = 0
KBY1 151553Z 22011KT 30/15 A3014 RMK A01 T03030145  RH  038%=      5-min Rain = 0
KBY1 151554Z 21011KT 30/15 A3014 RMK A01 T03010145  RH  039%=      5-min Rain = 0
KBY1 151555Z 20012KT 30/15 A3014 RMK A01 T03010145  RH  039%=      5-min Rain = 0
KBY1 151556Z 19008KT 30/15 A3014 RMK A01 T03000145  RH  039%=      5-min Rain = 0
KBY1 151557Z 20010KT 30/15 A3014 RMK A01 T03010145  RH  039%=      5-min Rain = 0
KBY1 151558Z 22011KT 30/14 A3014 RMK A01 T03010143  RH  038%=      5-min Rain = 0
KBY1 151559Z 22009KT 30/15 A3014 RMK A01 T03010145  RH  039%=      5-min Rain = 0
KBY1 151600Z 22012KT 30/15 A3014 RMK A01 T03010148  RH  039%=      5-min Rain = 0
KBY1 151601Z 22013KT 30/15 A3014 RMK A01 T03020149  RH  040%=      5-min Rain = 0
KBY1 151602Z 22011KT 30/15 A3014 RMK A01 T03010149  RH  040%=      5-min Rain = 0
KBY1 151603Z 19009KT 30/15 A3014 RMK A01 T03000150  RH  040%=      5-min Rain = 0
KBY1 151604Z 20012KT 30/15 A3014 RMK A01 T03020150  RH  040%=      5-min Rain = 0
KBY1 151605Z 18014KT 30/15 A3014 RMK A01 T03030149  RH  039%=      5-min Rain = 0
KBY1 151606Z 20011KT 30/15 A3014 RMK A01 T03010149  RH  039%=      5-min Rain = 0
KBY1 151607Z 21012KT 30/15 A3014 RMK A01 T03010150  RH  040%=      5-min Rain = 0
KBY1 151608Z 21013KT 30/15 A3014 RMK A01 T03020149  RH  039%=      5-min Rain = 0
KBY1 151609Z 21011KT 30/15 A3014 RMK A01 T03020151  RH  040%=      5-min Rain = 0
KBY1 151610Z 21012KT 30/15 A3014 RMK A01 T03020150  RH  040%=      5-min Rain = 0
KBY1 151611Z 21011KT 30/15 A3014 RMK A01 T03020152  RH  040%=      5-min Rain = 0
KBY1 151612Z 22011KT 30/15 A3014 RMK A01 T03030153  RH  040%=      5-min Rain = 0
KBY1 151613Z 21011KT 30/15 A3014 RMK A01 T03030151  RH  040%=      5-min Rain = 0
KBY1 151614Z 20010KT 30/15 A3014 RMK A01 T03040154  RH  040%=      5-min Rain = 0
KBY1 151615Z 20012KT 31/15 A3014 RMK A01 T03060154  RH  040%=      5-min Rain = 0
KBY1 151616Z 19010KT 31/16 A3014 RMK A01 T03060155  RH  040%=      5-min Rain = 0
KBY1 151617Z 20012KT 31/16 A3014 RMK A01 T03070155  RH  040%=      5-min Rain = 0
KBY1 151618Z 20012KT 31/15 A3014 RMK A01 T03080152  RH  039%=      5-min Rain = 0
KBY1 151619Z 20009KT 31/15 A3014 RMK A01 T03050153  RH  040%=      5-min Rain = 0
KBY1 151620Z 21006KT 30/16 A3014 RMK A01 T03040155  RH  041%=      5-min Rain = 0
KBY1 151621Z 22011KT 31/15 A3014 RMK A01 T03070154  RH  040%=      5-min Rain = 0
KBY1 151622Z 23012KT 31/15 A3014 RMK A01 T03070152  RH  039%=      5-min Rain = 0
KBY1 151623Z 22011KT 31/16 A3014 RMK A01 T03060155  RH  040%=      5-min Rain = 0
KBY1 151624Z 20012KT 31/15 A3014 RMK A01 T03080152  RH  039%=      5-min Rain = 0
KBY1 151625Z 19009KT 31/15 A3014 RMK A01 T03080153  RH  039%=      5-min Rain = 0
KBY1 151626Z 20008KT 31/15 A3014 RMK A01 T03080153  RH  039%=      5-min Rain = 0
KBY1 151627Z 19010KT 31/15 A3014 RMK A01 T03080154  RH  039%=      5-min Rain = 0
KBY1 151628Z 19013KT 31/15 A3013 RMK A01 T03080154  RH  039%=      5-min Rain = 0
KBY1 151629Z 21016KT 31/15 A3013 RMK A01 T03080154  RH  039%=      5-min Rain = 0
KBY1 151630Z 22015KT 31/15 A3013 RMK A01 T03080152  RH  039%=      5-min Rain = 0
KBY1 151631Z 23011KT 31/15 A3013 RMK A01 T03060152  RH  039%=      5-min Rain = 0
KBY1 151632Z 23007KT 31/15 A3013 RMK A01 T03060153  RH  040%=      5-min Rain = 0
KBY1 151633Z 23009KT 31/15 A3013 RMK A01 T03080152  RH  039%=      5-min Rain = 0
KBY1 151634Z 21008KT 31/15 A3013 RMK A01 T03080153  RH  039%=      5-min Rain = 0
KBY1 151635Z 22008KT 31/16 A3013 RMK A01 T03110156  RH  039%=      5-min Rain = 0
KBY1 151636Z 21009G14KT 31/16 A3013 RMK A01 T03140155  RH  038%=      5-min Rain = 0
KBY1 151637Z 20010G15KT 32/16 A3013 RMK A01 T03150155  RH  038%=      5-min Rain = 0
KBY1 151638Z 22013KT 32/15 A3013 RMK A01 T03150153  RH  038%=      5-min Rain = 0
KBY1 151639Z 21013KT 32/15 A3013 RMK A01 T03150153  RH  037%=      5-min Rain = 0
KBY1 151640Z 20013KT 32/15 A3013 RMK A01 T03150149  RH  037%=      5-min Rain = 0
KBY1 151641Z 21010KT 31/15 A3013 RMK A01 T03120150  RH  038%=      5-min Rain = 0
KBY1 151642Z 22012KT 31/15 A3013 RMK A01 T03110152  RH  038%=      5-min Rain = 0
KBY1 151643Z 23014KT 31/15 A3013 RMK A01 T03130151  RH  038%=      5-min Rain = 0
KBY1 151644Z 21013KT 31/15 A3013 RMK A01 T03110150  RH  038%=      5-min Rain = 0
KBY1 151645Z 21012KT 31/15 A3013 RMK A01 T03100150  RH  038%=      5-min Rain = 0
KBY1 151646Z 21011KT 31/15 A3013 RMK A01 T03100151  RH  038%=      5-min Rain = 0
KBY1 151647Z 22011KT 31/15 A3013 RMK A01 T03120153  RH  038%=      5-min Rain = 0
KBY1 151648Z 22013KT 31/15 A3013 RMK A01 T03140153  RH  038%=      5-min Rain = 0
KBY1 151649Z 21010KT 31/15 A3013 RMK A01 T03140153  RH  038%=      5-min Rain = 0
KBY1 151650Z 22011G19KT 31/16 A3012 RMK A01 T03140155  RH  038%=      5-min Rain = 0
KBY1 151651Z 22010G15KT 32/15 A3013 RMK A01 T03160153  RH  037%=      5-min Rain = 0
KBY1 151652Z 23010KT 32/16 A3013 RMK A01 T03180155  RH  037%=      5-min Rain = 0
KBY1 151653Z 25011KT 32/15 A3013 RMK A01 T03200153  RH  036%=      5-min Rain = 0
KBY1 151654Z 24011KT 32/15 A3013 RMK A01 T03180150  RH  036%=      5-min Rain = 0
KBY1 151655Z 23011KT 31/15 A3013 RMK A01 T03140150  RH  037%=      5-min Rain = 0
KBY1 151656Z 22010KT 31/15 A3013 RMK A01 T03120152  RH  038%=      5-min Rain = 0
KBY1 151657Z 21010KT 31/15 A3013 RMK A01 T03140151  RH  037%=      5-min Rain = 0
KBY1 151658Z 21010KT 31/15 A3012 RMK A01 T03140151  RH  037%=      5-min Rain = 0
KBY1 151659Z 21011KT 31/15 A3012 RMK A01 T03140152  RH  037%=      5-min Rain = 0
KBY1 151700Z 21010KT 32/15 A3012 RMK A01 T03150152  RH  037%=      5-min Rain = 0
KBY1 151701Z 23010KT 32/15 A3012 RMK A01 T03170150  RH  037%=      5-min Rain = 0
KBY1 151702Z 23008KT 32/15 A3012 RMK A01 T03160151  RH  037%=      5-min Rain = 0
KBY1 151703Z 22010KT 32/15 A3012 RMK A01 T03180153  RH  037%=      5-min Rain = 0
KBY1 151704Z 22010KT 32/15 A3012 RMK A01 T03200153  RH  037%=      5-min Rain = 0
KBY1 151705Z 22006KT 32/15 A3012 RMK A01 T03190153  RH  037%=      5-min Rain = 0
KBY1 151706Z 23006KT 32/15 A3012 RMK A01 T03170154  RH  037%=      5-min Rain = 0
KBY1 151707Z 23009G14KT 32/15 A3012 RMK A01 T03180153  RH  037%=      5-min Rain = 0
KBY1 151708Z 21011G17KT 32/15 A3012 RMK A01 T03210153  RH  036%=      5-min Rain = 0
KBY1 151709Z 22012KT 32/15 A3012 RMK A01 T03220149  RH  035%=      5-min Rain = 0
KBY1 151710Z 22013KT 32/15 A3012 RMK A01 T03190148  RH  036%=      5-min Rain = 0
KBY1 151711Z 21013KT 32/15 A3012 RMK A01 T03190145  RH  035%=      5-min Rain = 0
KBY1 151712Z 22015G20KT 32/15 A3012 RMK A01 T03190148  RH  036%=      5-min Rain = 0
KBY1 151713Z 22013KT 32/15 A3012 RMK A01 T03180148  RH  036%=      5-min Rain = 0
KBY1 151714Z 23010KT 32/15 A3012 RMK A01 T03160148  RH  036%=      5-min Rain = 0
KBY1 151715Z 22010KT 32/15 A3012 RMK A01 T03150150  RH  037%=      5-min Rain = 0
KBY1 151716Z 21014KT 32/15 A3011 RMK A01 T03180147  RH  036%=      5-min Rain = 0
KBY1 151717Z 22012KT 32/15 A3011 RMK A01 T03190148  RH  035%=      5-min Rain = 0
KBY1 151718Z 22012KT 32/15 A3011 RMK A01 T03200148  RH  035%=      5-min Rain = 0
KBY1 151719Z 23015KT 32/15 A3011 RMK A01 T03210148  RH  035%=      5-min Rain = 0
KBY1 151720Z 23012KT 32/15 A3011 RMK A01 T03210147  RH  035%=      5-min Rain = 0
KBY1 151721Z 23012KT 32/15 A3011 RMK A01 T03210146  RH  035%=      5-min Rain = 0
KBY1 151722Z 23008KT 32/15 A3011 RMK A01 T03200147  RH  035%=      5-min Rain = 0
KBY1 151723Z 24010KT 32/15 A3011 RMK A01 T03200147  RH  035%=      5-min Rain = 0
KBY1 151724Z 22011KT 32/15 A3011 RMK A01 T03200149  RH  035%=      5-min Rain = 0
KBY1 151725Z 23013KT 32/15 A3011 RMK A01 T03220148  RH  035%=      5-min Rain = 0
KBY1 151726Z 22008KT 32/15 A3011 RMK A01 T03220149  RH  035%=      5-min Rain = 0
KBY1 151727Z 22010KT 32/15 A3011 RMK A01 T03230151  RH  035%=      5-min Rain = 0
KBY1 151728Z 21013KT 33/15 A3011 RMK A01 T03250150  RH  035%=      5-min Rain = 0
KBY1 151729Z 22011KT 33/15 A3011 RMK A01 T03250148  RH  034%=      5-min Rain = 0
KBY1 151730Z 22013KT 33/15 A3011 RMK A01 T03250149  RH  034%=      5-min Rain = 0
KBY1 151731Z 20012KT 33/15 A301 RMK A01 T03270148  RH  034%=      5-min Rain = 0
KBY1 151732Z 23008KT 33/15 A3011 RMK A01 T03250148  RH  034%=      5-min Rain = 0
KBY1 151733Z 24009G14KT 32/15 A301 RMK A01 T03220150  RH  035%=      5-min Rain = 0
KBY1 151734Z 23012KT 32/15 A301 RMK A01 T03230150  RH  035%=      5-min Rain = 0
KBY1 151735Z 21011KT 32/15 A301 RMK A01 T03230150  RH  035%=      5-min Rain = 0
KBY1 151736Z 22012KT 32/15 A301 RMK A01 T03220150  RH  035%=      5-min Rain = 0
KBY1 151737Z 22014KT 32/15 A301 RMK A01 T03220149  RH  035%=      5-min Rain = 0
KBY1 151738Z 21014KT 32/15 A301 RMK A01 T03210146  RH  035%=      5-min Rain = 0
KBY1 151739Z 23013KT 32/15 A301 RMK A01 T03210146  RH  035%=      5-min Rain = 0
KBY1 151740Z 25014G19KT 33/15 A301 RMK A01 T03260147  RH  034%=      5-min Rain = 0
KBY1 151741Z 25014KT 33/14 A301 RMK A01 T03280143  RH  033%=      5-min Rain = 0
KBY1 151742Z 26011KT 33/14 A301 RMK A01 T03250142  RH  033%=      5-min Rain = 0
KBY1 151743Z 25009KT 32/14 A301 RMK A01 T03230143  RH  034%=      5-min Rain = 0
KBY1 151744Z 26012KT 32/14 A301 RMK A01 T03230143  RH  034%=      5-min Rain = 0
KBY1 151745Z 26007KT 32/15 A301 RMK A01 T03220145  RH  034%=      5-min Rain = 0
KBY1 151746Z 26009KT 32/14 A301 RMK A01 T03230142  RH  034%=      5-min Rain = 0
KBY1 151747Z 24011G18KT 32/15 A301 RMK A01 T03210147  RH  035%=      5-min Rain = 0
KBY1 151748Z 21012KT 33/14 A301 RMK A01 T03250143  RH  033%=      5-min Rain = 0
KBY1 151749Z 22011KT 33/14 A301 RMK A01 T03270143  RH  033%=      5-min Rain = 0
KBY1 151750Z 23011G16KT 33/14 A3009 RMK A01 T03270141  RH  032%=      5-min Rain = 0
KBY1 151751Z 24007KT 33/14 A3009 RMK A01 T03250144  RH  034%=      5-min Rain = 0
KBY1 151752Z 23012KT 33/14 A3009 RMK A01 T03280144  RH  033%=      5-min Rain = 0
KBY1 151753Z 22012G17KT 33/14 A3009 RMK A01 T03300141  RH  032%=      5-min Rain = 0
KBY1 151754Z 23013KT 33/14 A3009 RMK A01 T03320141  RH  032%=      5-min Rain = 0
KBY1 151755Z 22012KT 33/14 A3009 RMK A01 T03310139  RH  031%=      5-min Rain = 0
KBY1 151756Z 23009KT 33/14 A3009 RMK A01 T03280138  RH  032%=      5-min Rain = 0
KBY1 151757Z 25010KT 33/14 A3009 RMK A01 T03270140  RH  032%=      5-min Rain = 0
KBY1 151758Z 25009KT 33/14 A3009 RMK A01 T03280140  RH  032%=      5-min Rain = 0
KBY1 151759Z 25010KT 33/14 A3009 RMK A01 T03290140  RH  032%=      5-min Rain = 0
KBY1 151800Z 25012KT 33/14 A3009 RMK A01 T03310138  RH  031%=      5-min Rain = 0
KBY1 151801Z 24012KT 34/14 A3009 RMK A01 T03360135  RH  030%=      5-min Rain = 0
KBY1 151802Z 24009KT 34/13 A3009 RMK A01 T03350134  RH  030%=      5-min Rain = 0
KBY1 151803Z 25010KT 33/14 A3009 RMK A01 T03330137  RH  031%=      5-min Rain = 0
KBY1 151804Z 25012KT 34/14 A3009 RMK A01 T03350139  RH  031%=      5-min Rain = 0
KBY1 151805Z 24011KT 33/14 A3009 RMK A01 T03340138  RH  031%=      5-min Rain = 0
KBY1 151806Z 22011G19KT 33/14 A3009 RMK A01 T03320139  RH  031%=      5-min Rain = 0
KBY1 151807Z 22017KT 33/14 A3008 RMK A01 T03320136  RH  031%=      5-min Rain = 0
KBY1 151808Z 24017KT 33/13 A3008 RMK A01 T03340133  RH  030%=      5-min Rain = 0
KBY1 151809Z 24014KT 33/13 A3009 RMK A01 T03330131  RH  029%=      5-min Rain = 0
KBY1 151810Z 23013KT 33/13 A3008 RMK A01 T03320131  RH  030%=      5-min Rain = 0
KBY1 151811Z 23010G16KT 33/13 A3008 RMK A01 T03310133  RH  030%=      5-min Rain = 0
KBY1 151812Z 24009KT 33/14 A3008 RMK A01 T03340137  RH  031%=      5-min Rain = 0
KBY1 151813Z 27011G16KT 34/14 A3008 RMK A01 T03370137  RH  030%=      5-min Rain = 0
KBY1 151814Z 26008KT 34/14 A3008 RMK A01 T03380136  RH  030%=      5-min Rain = 0
KBY1 151815Z 25007KT 34/14 A3008 RMK A01 T03390140  RH  030%=      5-min Rain = 0
KBY1 151816Z 24009KT 34/14 A3008 RMK A01 T03420137  RH  029%=      5-min Rain = 0
KBY1 151817Z 23011KT 34/14 A3008 RMK A01 T03410142  RH  030%=      5-min Rain = 0
KBY1 151818Z 23010KT 34/14 A3008 RMK A01 T03420140  RH  030%=      5-min Rain = 0
KBY1 151819Z 22014KT 34/14 A3008 RMK A01 T03410141  RH  030%=      5-min Rain = 0
KBY1 151820Z 25011G17KT 34/14 A3008 RMK A01 T03400139  RH  030%=      5-min Rain = 0
KBY1 151821Z 26012KT 34/14 A3008 RMK A01 T03380139  RH  030%=      5-min Rain = 0
KBY1 151822Z 26011KT 34/14 A3008 RMK A01 T03360137  RH  030%=      5-min Rain = 0
KBY1 151823Z 26011KT 33/13 A3008 RMK A01 T03340133  RH  030%=      5-min Rain = 0
KBY1 151824Z 26008KT 33/14 A3008 RMK A01 T03320135  RH  030%=      5-min Rain = 0
KBY1 151825Z 26010KT 33/14 A3008 RMK A01 T03340138  RH  031%=      5-min Rain = 0
KBY1 151826Z 25007KT 34/14 A3007 RMK A01 T03370139  RH  030%=      5-min Rain = 0
KBY1 151827Z 24008G14KT 34/14 A3007 RMK A01 T03390142  RH  030%=      5-min Rain = 0
KBY1 151828Z 25008KT 34/14 A3007 RMK A01 T03440143  RH  030%=      5-min Rain = 0
KBY1 151829Z 23014KT 35/14 A3007 RMK A01 T03460142  RH  029%=      5-min Rain = 0
KBY1 151830Z 23011KT 34/14 A3007 RMK A01 T03440139  RH  029%=      5-min Rain = 0
KBY1 151831Z 23010KT 34/14 A3007 RMK A01 T03420140  RH  030%=      5-min Rain = 0
KBY1 151832Z 22012KT 34/14 A3007 RMK A01 T03430139  RH  029%=      5-min Rain = 0
KBY1 151833Z 22013KT 34/14 A3007 RMK A01 T03430137  RH  029%=      5-min Rain = 0
KBY1 151834Z 23014KT 34/14 A3007 RMK A01 T03430135  RH  029%=      5-min Rain = 0
KBY1 151835Z 24009KT 34/14 A3007 RMK A01 T03430137  RH  029%=      5-min Rain = 0
KBY1 151836Z 23012G17KT 35/14 A3007 RMK A01 T03450138  RH  029%=      5-min Rain = 0
KBY1 151837Z 24011G19KT 34/13 A3007 RMK A01 T03440134  RH  028%=      5-min Rain = 0
KBY1 151838Z 24016KT 34/13 A3007 RMK A01 T03440130  RH  028%=      5-min Rain = 0
KBY1 151839Z 24013KT 35/13 A3007 RMK A01 T03450128  RH  027%=      5-min Rain = 0
KBY1 151840Z 24014KT 35/13 A3007 RMK A01 T03470130  RH  027%=      5-min Rain = 0
KBY1 151841Z 23013G18KT 35/13 A3007 RMK A01 T03470131  RH  027%=      5-min Rain = 0
KBY1 151842Z 24012KT 35/13 A3006 RMK A01 T03470130  RH  027%=      5-min Rain = 0
KBY1 151843Z 24015G21KT 35/13 A3006 RMK A01 T03460131  RH  027%=      5-min Rain = 0
KBY1 151844Z 23013KT 35/13 A3006 RMK A01 T03460133  RH  028%=      5-min Rain = 0
KBY1 151845Z 23009KT 35/13 A3006 RMK A01 T03470133  RH  028%=      5-min Rain = 0
KBY1 151846Z 24010KT 35/13 A3006 RMK A01 T03470131  RH  027%=      5-min Rain = 0
KBY1 151847Z 24010KT 34/13 A3006 RMK A01 T03440129  RH  027%=      5-min Rain = 0
KBY1 151848Z 24012KT 34/13 A3006 RMK A01 T03420130  RH  028%=      5-min Rain = 0
KBY1 151849Z 25008KT 34/13 A3006 RMK A01 T03420131  RH  028%=      5-min Rain = 0
KBY1 151850Z 24011G16KT 35/14 A3006 RMK A01 T03450135  RH  028%=      5-min Rain = 0
KBY1 151851Z 22012KT 35/14 A3006 RMK A01 T03500136  RH  028%=      5-min Rain = 0
KBY1 151852Z 22014KT 35/13 A3006 RMK A01 T03520134  RH  027%=      5-min Rain = 0
KBY1 151853Z 22015KT 35/13 A3006 RMK A01 T03520133  RH  027%=      5-min Rain = 0
KBY1 151854Z 22012KT 35/13 A3006 RMK A01 T03510132  RH  027%=      5-min Rain = 0
KBY1 151855Z 21013KT 35/13 A3006 RMK A01 T03490131  RH  027%=      5-min Rain = 0
KBY1 151856Z 22013KT 35/13 A3006 RMK A01 T03490133  RH  027%=      5-min Rain = 0
KBY1 151857Z 24013KT 35/13 A3006 RMK A01 T03500134  RH  027%=      5-min Rain = 0
KBY1 151858Z 25011KT 35/13 A3006 RMK A01 T03500134  RH  027%=      5-min Rain = 0
KBY1 151859Z 24012KT 35/14 A3006 RMK A01 T03480135  RH  028%=      5-min Rain = 0
KBY1 151900Z 25012KT 35/14 A3005 RMK A01 T03480136  RH  028%=      5-min Rain = 0
KBY1 151901Z 25012G19KT 35/14 A3005 RMK A01 T03480135  RH  028%=      5-min Rain = 0
KBY1 151902Z 22018KT 35/14 A3005 RMK A01 T03490135  RH  028%=      5-min Rain = 0
KBY1 151903Z 23018KT 35/14 A3005 RMK A01 T03490136  RH  028%=      5-min Rain = 0
KBY1 151904Z 24014KT 35/13 A3005 RMK A01 T03500133  RH  027%=      5-min Rain = 0
KBY1 151905Z 24012KT 35/13 A3005 RMK A01 T03490134  RH  027%=      5-min Rain = 0
KBY1 151906Z 24009KT 35/14 A3005 RMK A01 T03500136  RH  028%=      5-min Rain = 0
KBY1 151907Z 25011KT 35/14 A3005 RMK A01 T03520135  RH  027%=      5-min Rain = 0
KBY1 151908Z 26012KT 35/13 A3005 RMK A01 T03500134  RH  027%=      5-min Rain = 0
KBY1 151909Z 27010KT 35/14 A3005 RMK A01 T03480135  RH  028%=      5-min Rain = 0
KBY1 151910Z 25011KT 35/14 A3005 RMK A01 T03470135  RH  028%=      5-min Rain = 0
KBY1 151911Z 24010KT 35/14 A3005 RMK A01 T03480137  RH  028%=      5-min Rain = 0
KBY1 151912Z 24015G22KT 35/14 A3005 RMK A01 T03520140  RH  028%=      5-min Rain = 0
KBY1 151913Z 24014KT 35/14 A3005 RMK A01 T03540139  RH  028%=      5-min Rain = 0
KBY1 151914Z 24012KT 35/14 A3005 RMK A01 T03540138  RH  027%=      5-min Rain = 0
KBY1 151915Z 24013KT 35/14 A3005 RMK A01 T03530139  RH  028%=      5-min Rain = 0
KBY1 151916Z 25013KT 35/14 A3005 RMK A01 T03520141  RH  028%=      5-min Rain = 0
KBY1 151917Z 24011KT 35/14 A3005 RMK A01 T03530140  RH  028%=      5-min Rain = 0
KBY1 151918Z 24011KT 35/14 A3005 RMK A01 T03530142  RH  028%=      5-min Rain = 0
KBY1 151919Z 24008KT 35/14 A3005 RMK A01 T03540141  RH  028%=      5-min Rain = 0
KBY1 151920Z 24011KT 36/14 A3004 RMK A01 T03580139  RH  027%=      5-min Rain = 0
KBY1 151921Z 24011KT 36/14 A3004 RMK A01 T03590135  RH  026%=      5-min Rain = 0
KBY1 151922Z 23010KT 36/14 A3004 RMK A01 T03570138  RH  027%=      5-min Rain = 0
KBY1 151923Z 23009KT 36/14 A3004 RMK A01 T03570137  RH  027%=      5-min Rain = 0
KBY1 151924Z 22009KT 36/14 A3004 RMK A01 T03560139  RH  027%=      5-min Rain = 0
KBY1 151925Z 21011KT 36/14 A3004 RMK A01 T03570140  RH  027%=      5-min Rain = 0
KBY1 151926Z 25011KT 36/14 A3004 RMK A01 T03600139  RH  027%=      5-min Rain = 0
KBY1 151927Z 26010KT 36/14 A3004 RMK A01 T03590136  RH  026%=      5-min Rain = 0
KBY1 151928Z 25010KT 36/14 A3004 RMK A01 T03590136  RH  026%=      5-min Rain = 0
KBY1 151929Z 23010KT 36/14 A3004 RMK A01 T03600137  RH  026%=      5-min Rain = 0
KBY1 151930Z 24011KT 36/13 A3004 RMK A01 T03590134  RH  026%=      5-min Rain = 0
KBY1 151931Z 24011G16KT 36/14 A3004 RMK A01 T03570136  RH  027%=      5-min Rain = 0
KBY1 151932Z 25008KT 36/14 A3004 RMK A01 T03570137  RH  027%=      5-min Rain = 0
KBY1 151933Z 24010KT 36/14 A3004 RMK A01 T03600140  RH  027%=      5-min Rain = 0
KBY1 151934Z 24008KT 36/14 A3004 RMK A01 T03610141  RH  027%=      5-min Rain = 0
KBY1 151935Z 23013G18KT 36/14 A3004 RMK A01 T03630139  RH  026%=      5-min Rain = 0
KBY1 151936Z 22010KT 36/13 A3003 RMK A01 T03630134  RH  025%=      5-min Rain = 0
KBY1 151937Z 22011KT 36/14 A3003 RMK A01 T03590135  RH  026%=      5-min Rain = 0
KBY1 151938Z 23011G16KT 36/13 A3003 RMK A01 T03580133  RH  026%=      5-min Rain = 0
KBY1 151939Z 23010G16KT 36/14 A3003 RMK A01 T03600137  RH  026%=      5-min Rain = 0
KBY1 151940Z 24011KT 36/13 A3003 RMK A01 T03640132  RH  025%=      5-min Rain = 0
KBY1 151941Z 24009KT 36/14 A3003 RMK A01 T03640137  RH  026%=      5-min Rain = 0
KBY1 151942Z 21010KT 37/14 A3003 RMK A01 T03650137  RH  026%=      5-min Rain = 0
KBY1 151943Z 21010KT 37/14 A3003 RMK A01 T03650137  RH  026%=      5-min Rain = 0
KBY1 151944Z 27009KT 37/14 A3003 RMK A01 T03670137  RH  025%=      5-min Rain = 0
KBY1 151945Z 26009KT 37/13 A3003 RMK A01 T03660130  RH  024%=      5-min Rain = 0
KBY1 151946Z 27011KT 36/13 A3003 RMK A01 T03640131  RH  025%=      5-min Rain = 0
KBY1 151947Z 25011KT 36/13 A3003 RMK A01 T03620133  RH  025%=      5-min Rain = 0
KBY1 151948Z 24007G12KT 36/13 A3003 RMK A01 T03620132  RH  025%=      5-min Rain = 0
KBY1 151949Z 24008KT 36/13 A3003 RMK A01 T03630133  RH  025%=      5-min Rain = 0
KBY1 151950Z 23008KT 37/13 A3003 RMK A01 T03660134  RH  025%=      5-min Rain = 0
KBY1 151951Z 23007KT 37/13 A3003 RMK A01 T03650134  RH  025%=      5-min Rain = 0
KBY1 151952Z 23006KT 37/13 A3003 RMK A01 T03650134  RH  025%=      5-min Rain = 0
KBY1 151953Z 27010KT 36/13 A3002 RMK A01 T03640133  RH  025%=      5-min Rain = 0
KBY1 151954Z 26012KT 36/13 A3003 RMK A01 T03640132  RH  025%=      5-min Rain = 0
KBY1 151955Z 23010KT 37/13 A3003 RMK A01 T03660133  RH  025%=      5-min Rain = 0
KBY1 151956Z 23013KT 37/13 A3003 RMK A01 T03680134  RH  025%=      5-min Rain = 0
KBY1 151957Z 22011KT 36/13 A3002 RMK A01 T03640132  RH  025%=      5-min Rain = 0
KBY1 151958Z 21011KT 36/13 A3002 RMK A01 T03610132  RH  025%=      5-min Rain = 0
KBY1 151959Z 22009KT 36/13 A3002 RMK A01 T03610134  RH  026%=      5-min Rain = 0
KBY1 152000Z 23016KT 36/14 A3002 RMK A01 T03630135  RH  026%=      5-min Rain = 0
KBY1 152001Z 25014KT 37/13 A3002 RMK A01 T03650133  RH  025%=      5-min Rain = 0
KBY1 152002Z 24015KT 36/13 A3002 RMK A01 T03640132  RH  025%=      5-min Rain = 0
KBY1 152003Z 24011KT 36/13 A3002 RMK A01 T03620133  RH  025%=      5-min Rain = 0
KBY1 152004Z 24010KT 36/13 A3002 RMK A01 T03620133  RH  025%=      5-min Rain = 0
KBY1 152005Z 23008KT 37/14 A3002 RMK A01 T03660136  RH  025%=      5-min Rain = 0
KBY1 152006Z 21007KT 37/13 A3002 RMK A01 T03670133  RH  025%=      5-min Rain = 0
KBY1 152007Z 21007KT 36/13 A3002 RMK A01 T03640133  RH  025%=      5-min Rain = 0
KBY1 152008Z 20009KT 36/13 A3002 RMK A01 T03630132  RH  025%=      5-min Rain = 0
KBY1 152009Z 20009KT 36/13 A3002 RMK A01 T03630134  RH  025%=      5-min Rain = 0
KBY1 152010Z 20010KT 37/14 A3001 RMK A01 T03650136  RH  025%=      5-min Rain = 0
KBY1 152011Z 24010KT 37/14 A3001 RMK A01 T03700138  RH  025%=      5-min Rain = 0
KBY1 152012Z 23010KT 37/14 A3001 RMK A01 T03730136  RH  024%=      5-min Rain = 0
KBY1 152013Z 23009KT 37/13 A3001 RMK A01 T03710133  RH  024%=      5-min Rain = 0
KBY1 152014Z 22009KT 37/13 A3001 RMK A01 T03690133  RH  024%=      5-min Rain = 0
KBY1 152015Z 20009KT 37/13 A3001 RMK A01 T03670129  RH  024%=      5-min Rain = 0
KBY1 152016Z 19007KT 36/13 A3001 RMK A01 T03640130  RH  025%=      5-min Rain = 0
KBY1 152017Z 23010G16KT 37/13 A3001 RMK A01 T03650126  RH  024%=      5-min Rain = 0
KBY1 152018Z 23014KT 37/13 A3001 RMK A01 T03650127  RH  024%=      5-min Rain = 0
KBY1 152019Z 25012KT 37/13 A3001 RMK A01 T03650126  RH  024%=      5-min Rain = 0
KBY1 152020Z 24009KT 36/13 A3001 RMK A01 T03640127  RH  024%=      5-min Rain = 0
KBY1 152021Z 26009KT 37/13 A3001 RMK A01 T03660130  RH  024%=      5-min Rain = 0
KBY1 152022Z 26008KT 37/13 A3001 RMK A01 T03680128  RH  024%=      5-min Rain = 0
KBY1 152023Z 26009KT 37/13 A3001 RMK A01 T03680128  RH  024%=      5-min Rain = 0
KBY1 152024Z 26009KT 37/13 A3001 RMK A01 T03670129  RH  024%=      5-min Rain = 0
KBY1 152025Z 25009G15KT 37/13 A3001 RMK A01 T03680132  RH  024%=      5-min Rain = 0
KBY1 152026Z 26011KT 37/13 A3001 RMK A01 T03690131  RH  024%=      5-min Rain = 0
KBY1 152027Z 23012KT 37/13 A3001 RMK A01 T03690133  RH  024%=      5-min Rain = 0
KBY1 152028Z 23008KT 37/13 A3001 RMK A01 T03700131  RH  024%=      5-min Rain = 0
KBY1 152029Z 22008KT 37/13 A30 RMK A01 T03690129  RH  024%=      5-min Rain = 0
KBY1 152030Z 24006KT 37/13 A30 RMK A01 T03670128  RH  024%=      5-min Rain = 0
KBY1 152031Z 25005KT 37/13 A30 RMK A01 T03650127  RH  024%=      5-min Rain = 0
KBY1 152032Z 19008KT 36/13 A30 RMK A01 T03640130  RH  025%=      5-min Rain = 0
KBY1 152033Z 19006KT 37/13 A30 RMK A01 T03670129  RH  024%=      5-min Rain = 0
KBY1 152034Z 24005KT 37/13 A30 RMK A01 T03690133  RH  024%=      5-min Rain = 0
KBY1 152035Z 22006KT 37/13 A30 RMK A01 T03730133  RH  024%=      5-min Rain = 0
KBY1 152036Z 21010KT 37/13 A30 RMK A01 T03730133  RH  024%=      5-min Rain = 0
KBY1 152037Z 22012KT 37/13 A30 RMK A01 T03730133  RH  024%=      5-min Rain = 0
KBY1 152038Z 21014KT 37/13 A30 RMK A01 T03730130  RH  023%=      5-min Rain = 0
KBY1 152039Z 22010G15KT 37/13 A30 RMK A01 T03710131  RH  024%=      5-min Rain = 0
KBY1 152040Z 23008KT 37/13 A30 RMK A01 T03720130  RH  024%=      5-min Rain = 0
KBY1 152041Z 22010KT 37/13 A30 RMK A01 T03720130  RH  024%=      5-min Rain = 0
KBY1 152042Z 23008KT 37/13 A30 RMK A01 T03720131  RH  024%=      5-min Rain = 0
KBY1 152043Z 25008KT 37/13 A30 RMK A01 T03730127  RH  023%=      5-min Rain = 0
KBY1 152044Z 24008KT 37/13 A30 RMK A01 T03730129  RH  023%=      5-min Rain = 0
KBY1 152045Z 24010G15KT 37/13 A30 RMK A01 T03730130  RH  023%=      5-min Rain = 0
KBY1 152046Z 23010KT 37/13 A30 RMK A01 T03740126  RH  023%=      5-min Rain = 0
KBY1 152047Z 24007KT 37/13 A30 RMK A01 T03720127  RH  023%=      5-min Rain = 0
KBY1 152048Z 23008KT 37/13 A2999 RMK A01 T03720125  RH  023%=      5-min Rain = 0
KBY1 152049Z 21006KT 37/13 A2999 RMK A01 T03710126  RH  023%=      5-min Rain = 0
KBY1 152050Z 24006KT 37/12 A2999 RMK A01 T03700123  RH  023%=      5-min Rain = 0
KBY1 152051Z 22009KT 37/13 A2999 RMK A01 T03700128  RH  024%=      5-min Rain = 0
KBY1 152052Z 25009KT 37/13 A2999 RMK A01 T03740130  RH  023%=      5-min Rain = 0
KBY1 152053Z 26009G14KT 38/13 A2999 RMK A01 T03780128  RH  023%=      5-min Rain = 0
KBY1 152054Z 23010KT 38/13 A2999 RMK A01 T03780127  RH  022%=      5-min Rain = 0
KBY1 152055Z 25008KT 38/12 A2999 RMK A01 T03780124  RH  022%=      5-min Rain = 0
KBY1 152056Z 23009G14KT 38/13 A2999 RMK A01 T03780125  RH  022%=      5-min Rain = 0
KBY1 152057Z 23011KT 38/13 A2999 RMK A01 T03780127  RH  022%=      5-min Rain = 0
KBY1 152058Z 22011KT 38/12 A2999 RMK A01 T03780123  RH  022%=      5-min Rain = 0
KBY1 152059Z 22010G15KT 38/12 A2999 RMK A01 T03760121  RH  022%=      5-min Rain = 0
KBY1 152100Z 23012KT 37/12 A2999 RMK A01 T03740120  RH  022%=      5-min Rain = 0
KBY1 152101Z 23013KT 37/12 A2999 RMK A01 T03740122  RH  022%=      5-min Rain = 0
KBY1 152102Z 24010KT 37/12 A2999 RMK A01 T03730118  RH  022%=      5-min Rain = 0
KBY1 152103Z 23013KT 37/12 A2999 RMK A01 T03710120  RH  022%=      5-min Rain = 0
KBY1 152104Z 23013KT 37/12 A2999 RMK A01 T03710118  RH  022%=      5-min Rain = 0
KBY1 152105Z 22010KT 37/12 A2999 RMK A01 T03710118  RH  022%=      5-min Rain = 0
KBY1 152106Z 21007KT 37/12 A2999 RMK A01 T03720119  RH  022%=      5-min Rain = 0
KBY1 152107Z 24008KT 37/12 A2998 RMK A01 T03730119  RH  022%=      5-min Rain = 0
KBY1 152108Z 19006KT 37/12 A2998 RMK A01 T03730118  RH  022%=      5-min Rain = 0
KBY1 152109Z 18007KT 37/12 A2998 RMK A01 T03730121  RH  022%=      5-min Rain = 0
KBY1 152110Z 20007KT 38/12 A2998 RMK A01 T03770122  RH  022%=      5-min Rain = 0
KBY1 152111Z 23008KT 38/12 A2998 RMK A01 T03790120  RH  021%=      5-min Rain = 0
KBY1 152112Z 22011G19KT 38/12 A2998 RMK A01 T03780123  RH  022%=      5-min Rain = 0
KBY1 152113Z 24014KT 38/12 A2998 RMK A01 T03780116  RH  021%=      5-min Rain = 0
KBY1 152114Z 25011G16KT 38/12 A2998 RMK A01 T03770117  RH  021%=      5-min Rain = 0
KBY1 152115Z 24012KT 38/12 A2998 RMK A01 T03760115  RH  021%=      5-min Rain = 0
KBY1 152116Z 25008KT 38/12 A2998 RMK A01 T03770117  RH  021%=      5-min Rain = 0
KBY1 152117Z 25006KT 38/11 A2998 RMK A01 T03780112  RH  020%=      5-min Rain = 0
KBY1 152118Z 25008G13KT 38/11 A2998 RMK A01 T03750114  RH  021%=      5-min Rain = 0
KBY1 152119Z 24010G15KT 38/11 A2998 RMK A01 T03750113  RH  021%=      5-min Rain = 0
KBY1 152120Z 23006KT 37/12 A2998 RMK A01 T03740115  RH  021%=      5-min Rain = 0
KBY1 152121Z 21007KT 37/11 A2998 RMK A01 T03730114  RH  021%=      5-min Rain = 0
KBY1 152122Z 22005KT 37/12 A2997 RMK A01 T03730115  RH  021%=      5-min Rain = 0
KBY1 152123Z 22005KT 37/12 A2997 RMK A01 T03730115  RH  021%=      5-min Rain = 0
KBY1 152124Z 22006KT 37/12 A2997 RMK A01 T03730115  RH  021%=      5-min Rain = 0
KBY1 152125Z 28005KT 37/12 A2997 RMK A01 T03730115  RH  021%=      5-min Rain = 0
KBY1 152126Z 26005KT 37/12 A2997 RMK A01 T03730115  RH  021%=      5-min Rain = 0
KBY1 152127Z 27006KT 37/12 A2997 RMK A01 T03730118  RH  022%=      5-min Rain = 0
KBY1 152128Z 27007KT 38/12 A2997 RMK A01 T03770115  RH  021%=      5-min Rain = 0
KBY1 152129Z 25006KT 38/12 A2997 RMK A01 T03760115  RH  021%=      5-min Rain = 0
KBY1 152130Z 24009KT 38/12 A2997 RMK A01 T03760117  RH  021%=      5-min Rain = 0
KBY1 152131Z 26009KT 38/11 A2997 RMK A01 T03770113  RH  020%=      5-min Rain = 0
KBY1 152132Z 27006KT 38/11 A2997 RMK A01 T03760113  RH  021%=      5-min Rain = 0
KBY1 152133Z 27007KT 38/11 A2997 RMK A01 T03750111  RH  020%=      5-min Rain = 0
KBY1 152134Z 29009KT 38/11 A2997 RMK A01 T03750108  RH  020%=      5-min Rain = 0
KBY1 152135Z 29007KT 37/10 A2997 RMK A01 T03730103  RH  020%=      5-min Rain = 0
KBY1 152136Z 27012KT 37/11 A2997 RMK A01 T03720108  RH  020%=      5-min Rain = 0
KBY1 152137Z 28014KT 37/11 A2996 RMK A01 T03740106  RH  020%=      5-min Rain = 0
KBY1 152138Z 25014KT 37/11 A2996 RMK A01 T03730105  RH  020%=      5-min Rain = 0
KBY1 152139Z 22011KT 37/10 A2996 RMK A01 T03740103  RH  020%=      5-min Rain = 0
KBY1 152140Z 22007KT 37/10 A2996 RMK A01 T03730104  RH  020%=      5-min Rain = 0
KBY1 152141Z 25006KT 37/11 A2996 RMK A01 T03740106  RH  020%=      5-min Rain = 0
KBY1 152142Z 26006KT 38/11 A2996 RMK A01 T03760108  RH  020%=      5-min Rain = 0
KBY1 152143Z 27007KT 38/11 A2996 RMK A01 T03790107  RH  020%=      5-min Rain = 0
KBY1 152144Z 26008KT 38/10 A2996 RMK A01 T03790101  RH  019%=      5-min Rain = 0
KBY1 152145Z 27007KT 38/11 A2996 RMK A01 T03790105  RH  019%=      5-min Rain = 0
KBY1 152146Z 27012KT 38/11 A2996 RMK A01 T03800105  RH  019%=      5-min Rain = 0
KBY1 152147Z 27012KT 38/10 A2996 RMK A01 T03800103  RH  019%=      5-min Rain = 0
KBY1 152148Z 28008KT 38/10 A2996 RMK A01 T03790098  RH  018%=      5-min Rain = 0
KBY1 152149Z 27007KT 38/10 A2996 RMK A01 T03760100  RH  019%=      5-min Rain = 0
KBY1 152150Z 27007KT 38/10 A2996 RMK A01 T03760098  RH  019%=      5-min Rain = 0
KBY1 152151Z 28007KT 38/10 A2996 RMK A01 T03770101  RH  019%=      5-min Rain = 0
KBY1 152152Z 25006KT 38/10 A2996 RMK A01 T03780104  RH  019%=      5-min Rain = 0
KBY1 152153Z 24010KT 38/11 A2996 RMK A01 T03790107  RH  020%=      5-min Rain = 0
KBY1 152154Z 23011KT 38/10 A2996 RMK A01 T03810100  RH  018%=      5-min Rain = 0
KBY1 152155Z 23010KT 38/11 A2996 RMK A01 T03810105  RH  019%=      5-min Rain = 0
KBY1 152156Z 23009KT 38/11 A2996 RMK A01 T03810105  RH  019%=      5-min Rain = 0
KBY1 152157Z 22009KT 38/11 A2996 RMK A01 T03810106  RH  019%=      5-min Rain = 0
KBY1 152158Z 22006KT 38/11 A2996 RMK A01 T03800105  RH  019%=      5-min Rain = 0
KBY1 152159Z 23004KT 38/10 A2996 RMK A01 T03790104  RH  019%=      5-min Rain = 0
KBY1 152200Z 26002KT 38/10 A2996 RMK A01 T03780102  RH  019%=      5-min Rain = 0
KBY1 152201Z 21004KT 38/11 A2996 RMK A01 T03780108  RH  020%=      5-min Rain = 0
KBY1 152202Z 31001KT 38/11 A2996 RMK A01 T03800108  RH  020%=      5-min Rain = 0
KBY1 152203Z 31006KT 38/11 A2996 RMK A01 T03820109  RH  019%=      5-min Rain = 0
KBY1 152204Z 28006KT 38/11 A2996 RMK A01 T03820106  RH  019%=      5-min Rain = 0
KBY1 152205Z 26007KT 38/10 A2996 RMK A01 T03800104  RH  019%=      5-min Rain = 0
KBY1 152206Z 26008KT 38/10 A2996 RMK A01 T03780103  RH  019%=      5-min Rain = 0
KBY1 152207Z 26009KT 38/10 A2996 RMK A01 T03790104  RH  019%=      5-min Rain = 0
KBY1 152208Z 27012KT 38/10 A2996 RMK A01 T03810100  RH  018%=      5-min Rain = 0
KBY1 152209Z 27011KT 38/10 A2996 RMK A01 T03800096  RH  018%=      5-min Rain = 0
KBY1 152210Z 25008KT 38/09 A2996 RMK A01 T03780094  RH  018%=      5-min Rain = 0
KBY1 152211Z 26007KT 38/09 A2996 RMK A01 T03770093  RH  018%=      5-min Rain = 0
KBY1 152212Z 26006KT 38/10 A2996 RMK A01 T03770095  RH  018%=      5-min Rain = 0
KBY1 152213Z 26008KT 38/10 A2996 RMK A01 T03780098  RH  019%=      5-min Rain = 0
KBY1 152214Z 26009KT 38/10 A2996 RMK A01 T03800096  RH  018%=      5-min Rain = 0
KBY1 152215Z 26009KT 38/10 A2996 RMK A01 T03790098  RH  018%=      5-min Rain = 0
KBY1 152216Z 27007KT 38/10 A2996 RMK A01 T03780099  RH  019%=      5-min Rain = 0
KBY1 152217Z 27007KT 38/10 A2996 RMK A01 T03770101  RH  019%=      5-min Rain = 0
KBY1 152218Z 27008KT 38/10 A2996 RMK A01 T03780099  RH  019%=      5-min Rain = 0
KBY1 152219Z 26008KT 38/10 A2996 RMK A01 T03780098  RH  019%=      5-min Rain = 0
KBY1 152220Z 25006KT 38/10 A2996 RMK A01 T03780101  RH  019%=      5-min Rain = 0
KBY1 152221Z 22005KT 38/10 A2995 RMK A01 T03780103  RH  019%=      5-min Rain = 0
KBY1 152222Z 25005KT 38/11 A2995 RMK A01 T03800105  RH  019%=      5-min Rain = 0
KBY1 152223Z 23005KT 38/10 A2995 RMK A01 T03810104  RH  019%=      5-min Rain = 0
KBY1 152224Z 21006KT 38/11 A2995 RMK A01 T03820107  RH  019%=      5-min Rain = 0
KBY1 152225Z 20009KT 38/11 A2995 RMK A01 T03840106  RH  019%=      5-min Rain = 0
KBY1 152226Z 21008KT 38/11 A2995 RMK A01 T03840106  RH  019%=      5-min Rain = 0
KBY1 152227Z 19008KT 38/10 A2995 RMK A01 T03830103  RH  019%=      5-min Rain = 0
KBY1 152228Z 20008KT 38/10 A2995 RMK A01 T03820104  RH  019%=      5-min Rain = 0
KBY1 152229Z 21006KT 38/10 A2995 RMK A01 T03810103  RH  019%=      5-min Rain = 0
KBY1 152230Z 22008KT 38/10 A2995 RMK A01 T03810104  RH  019%=      5-min Rain = 0
KBY1 152231Z 23008KT 38/10 A2995 RMK A01 T03810104  RH  019%=      5-min Rain = 0
KBY1 152232Z 23008KT 38/10 A2995 RMK A01 T03800102  RH  019%=      5-min Rain = 0
KBY1 152233Z 23008KT 38/10 A2995 RMK A01 T03800104  RH  019%=      5-min Rain = 0
KBY1 152234Z 23008KT 38/10 A2995 RMK A01 T03800102  RH  019%=      5-min Rain = 0
KBY1 152235Z 24009KT 38/10 A2995 RMK A01 T03800102  RH  019%=      5-min Rain = 0
KBY1 152236Z 25010KT 38/10 A2995 RMK A01 T03800101  RH  019%=      5-min Rain = 0
KBY1 152237Z 24008KT 38/10 A2995 RMK A01 T03800103  RH  019%=      5-min Rain = 0
KBY1 152238Z 24009KT 38/10 A2995 RMK A01 T03820101  RH  018%=      5-min Rain = 0
KBY1 152239Z 23009KT 38/10 A2995 RMK A01 T03820101  RH  018%=      5-min Rain = 0
KBY1 152240Z 23012KT 38/10 A2995 RMK A01 T03810098  RH  018%=      5-min Rain = 0
KBY1 152241Z 23010KT 38/10 A2995 RMK A01 T03800095  RH  018%=      5-min Rain = 0
KBY1 152242Z 25009KT 38/09 A2995 RMK A01 T03780094  RH  018%=      5-min Rain = 0
KBY1 152243Z 23008KT 38/10 A2995 RMK A01 T03780095  RH  018%=      5-min Rain = 0
KBY1 152244Z 23009KT 38/09 A2995 RMK A01 T03780092  RH  018%=      5-min Rain = 0
KBY1 152245Z 23008KT 38/10 A2995 RMK A01 T03760095  RH  018%=      5-min Rain = 0
KBY1 152246Z 22008KT 38/09 A2995 RMK A01 T03760093  RH  018%=      5-min Rain = 0
KBY1 152247Z 24008KT 38/10 A2995 RMK A01 T03750095  RH  018%=      5-min Rain = 0
KBY1 152248Z 24006KT 38/10 A2995 RMK A01 T03760097  RH  019%=      5-min Rain = 0
KBY1 152249Z 24006KT 38/10 A2995 RMK A01 T03780100  RH  019%=      5-min Rain = 0
KBY1 152250Z 24005KT 38/10 A2995 RMK A01 T03800098  RH  018%=      5-min Rain = 0
KBY1 152251Z 22004KT 38/09 A2995 RMK A01 T03800094  RH  018%=      5-min Rain = 0
KBY1 152252Z 22004KT 38/10 A2995 RMK A01 T03780095  RH  018%=      5-min Rain = 0
KBY1 152253Z 23003KT 38/10 A2995 RMK A01 T03780097  RH  018%=      5-min Rain = 0
KBY1 152254Z 23005KT 38/10 A2995 RMK A01 T03800097  RH  018%=      5-min Rain = 0
KBY1 152255Z 27006KT 38/10 A2995 RMK A01 T03800098  RH  018%=      5-min Rain = 0
KBY1 152256Z 25004KT 38/10 A2995 RMK A01 T03800102  RH  019%=      5-min Rain = 0
KBY1 152257Z 24007KT 38/10 A2995 RMK A01 T03810102  RH  019%=      5-min Rain = 0
KBY1 152258Z 23007KT 38/10 A2995 RMK A01 T03810100  RH  018%=      5-min Rain = 0
KBY1 152259Z 24009KT 38/10 A2995 RMK A01 T03820101  RH  018%=      5-min Rain = 0
KBY1 152300Z 24007KT 38/10 A2995 RMK A01 T03820101  RH  018%=      5-min Rain = 0
KBY1 152301Z 24008KT 38/10 A2995 RMK A01 T03810102  RH  019%=      5-min Rain = 0
KBY1 152302Z 24009KT 38/10 A2995 RMK A01 T03810100  RH  018%=      5-min Rain = 0
KBY1 152303Z 24007KT 38/10 A2995 RMK A01 T03810100  RH  018%=      5-min Rain = 0
KBY1 152304Z 25007KT 38/10 A2995 RMK A01 T03800100  RH  019%=      5-min Rain = 0
KBY1 152305Z 24006KT 38/10 A2995 RMK A01 T03790101  RH  019%=      5-min Rain = 0
KBY1 152306Z 25008KT 38/10 A2994 RMK A01 T03780099  RH  019%=      5-min Rain = 0
KBY1 152307Z 23004KT 38/10 A2994 RMK A01 T03790103  RH  019%=      5-min Rain = 0
KBY1 152308Z 21006KT 38/10 A2994 RMK A01 T03820102  RH  019%=      5-min Rain = 0
KBY1 152309Z 20008KT 38/10 A2994 RMK A01 T03820103  RH  019%=      5-min Rain = 0
KBY1 152310Z 22006KT 38/10 A2994 RMK A01 T03820101  RH  018%=      5-min Rain = 0
KBY1 152311Z 22006KT 38/10 A2994 RMK A01 T03810103  RH  019%=      5-min Rain = 0
KBY1 152312Z 24006KT 38/10 A2994 RMK A01 T03810102  RH  019%=      5-min Rain = 0
KBY1 152313Z 24006KT 38/10 A2994 RMK A01 T03810104  RH  019%=      5-min Rain = 0
KBY1 152314Z 26006KT 38/10 A2994 RMK A01 T03810101  RH  019%=      5-min Rain = 0
KBY1 152315Z 26006KT 38/10 A2994 RMK A01 T03810101  RH  019%=      5-min Rain = 0
KBY1 152316Z 26006KT 38/10 A2994 RMK A01 T03810097  RH  018%=      5-min Rain = 0
KBY1 152317Z 24005KT 38/10 A2994 RMK A01 T03780096  RH  018%=      5-min Rain = 0
KBY1 152318Z 23008KT 38/10 A2994 RMK A01 T03770102  RH  019%=      5-min Rain = 0
KBY1 152319Z 23006KT 38/10 A2994 RMK A01 T03770098  RH  019%=      5-min Rain = 0
KBY1 152320Z 23005KT 38/10 A2994 RMK A01 T03770098  RH  018%=      5-min Rain = 0
KBY1 152321Z 24006KT 38/10 A2994 RMK A01 T03770099  RH  019%=      5-min Rain = 0
KBY1 152322Z 26006KT 38/10 A2994 RMK A01 T03770099  RH  019%=      5-min Rain = 0
KBY1 152323Z 28005KT 38/10 A2994 RMK A01 T03780103  RH  019%=      5-min Rain = 0
KBY1 152324Z 26006KT 38/10 A2994 RMK A01 T03790102  RH  019%=      5-min Rain = 0
KBY1 152325Z 25007KT 38/10 A2994 RMK A01 T03790100  RH  019%=      5-min Rain = 0
KBY1 152326Z 24005KT 38/10 A2994 RMK A01 T03780103  RH  019%=      5-min Rain = 0
KBY1 152327Z 24008KT 38/11 A2994 RMK A01 T03790108  RH  020%=      5-min Rain = 0
KBY1 152328Z 23008KT 38/10 A2994 RMK A01 T03800101  RH  019%=      5-min Rain = 0
KBY1 152329Z 24007KT 38/10 A2994 RMK A01 T03780100  RH  019%=      5-min Rain = 0
KBY1 152330Z 24006KT 38/10 A2994 RMK A01 T03770099  RH  019%=      5-min Rain = 0
KBY1 152331Z 23004KT 38/10 A2994 RMK A01 T03770100  RH  019%=      5-min Rain = 0
KBY1 152332Z 23005KT 38/10 A2994 RMK A01 T03770099  RH  019%=      5-min Rain = 0
KBY1 152333Z 22005KT 38/10 A2994 RMK A01 T03780102  RH  019%=      5-min Rain = 0
KBY1 152334Z 23006KT 38/10 A2994 RMK A01 T03780101  RH  019%=      5-min Rain = 0
KBY1 152335Z 22006KT 38/10 A2994 RMK A01 T03780103  RH  019%=      5-min Rain = 0
KBY1 152336Z 22006KT 38/10 A2994 RMK A01 T03780104  RH  019%=      5-min Rain = 0
KBY1 152337Z 22007KT 38/10 A2994 RMK A01 T03790104  RH  019%=      5-min Rain = 0
KBY1 152338Z 22008KT 38/10 A2994 RMK A01 T03790101  RH  019%=      5-min Rain = 0
KBY1 152339Z 21005KT 38/10 A2994 RMK A01 T03770104  RH  019%=      5-min Rain = 0
KBY1 152340Z 20006KT 38/10 A2994 RMK A01 T03770101  RH  019%=      5-min Rain = 0
KBY1 152341Z 21007KT 38/10 A2994 RMK A01 T03770099  RH  019%=      5-min Rain = 0
KBY1 152342Z 21007KT 38/10 A2994 RMK A01 T03770102  RH  019%=      5-min Rain = 0
KBY1 152343Z 21007KT 38/10 A2994 RMK A01 T03770100  RH  019%=      5-min Rain = 0
KBY1 152344Z 20008KT 38/10 A2994 RMK A01 T03780100  RH  019%=      5-min Rain = 0
KBY1 152345Z 21007KT 38/10 A2994 RMK A01 T03780100  RH  019%=      5-min Rain = 0
KBY1 152346Z 22009KT 38/10 A2994 RMK A01 T03780102  RH  019%=      5-min Rain = 0
KBY1 152347Z 22010KT 38/10 A2994 RMK A01 T03770102  RH  019%=      5-min Rain = 0
KBY1 152348Z 21009KT 38/10 A2994 RMK A01 T03750099  RH  019%=      5-min Rain = 0
KBY1 152349Z 23010KT 37/10 A2994 RMK A01 T03740098  RH  019%=      5-min Rain = 0
KBY1 152350Z 23010KT 37/10 A2994 RMK A01 T03740098  RH  019%=      5-min Rain = 0
KBY1 152351Z 22009KT 37/10 A2994 RMK A01 T03730102  RH  019%=      5-min Rain = 0
KBY1 152352Z 22010KT 37/10 A2994 RMK A01 T03730100  RH  019%=      5-min Rain = 0
KBY1 152353Z 23007KT 37/10 A2994 RMK A01 T03730100  RH  019%=      5-min Rain = 0
KBY1 152354Z 22008KT 37/10 A2994 RMK A01 T03730101  RH  019%=      5-min Rain = 0
KBY1 152355Z 21007KT 37/10 A2994 RMK A01 T03730102  RH  020%=      5-min Rain = 0
KBY1 152356Z 22007KT 37/10 A2994 RMK A01 T03730103  RH  020%=      5-min Rain = 0
KBY1 152357Z 22007KT 37/10 A2994 RMK A01 T03730101  RH  019%=      5-min Rain = 0
KBY1 152358Z 23006KT 37/10 A2994 RMK A01 T03730102  RH  019%=      5-min Rain = 0
KBY1 152359Z 24005KT 37/10 A2994 RMK A01 T03730101  RH  019%=      5-min Rain = 0
KBY1 160000Z 25004KT 37/10 A2994 RMK A01 T03730104  RH  020%=      5-min Rain = 0
KBY1 160001Z 25004KT 37/10 A2994 RMK A01 T03740104  RH  020%=      5-min Rain = 0
KBY1 160002Z 23005KT 38/10 A2994 RMK A01 T03750104  RH  020%=      5-min Rain = 0
KBY1 160003Z 22005KT 38/10 A2994 RMK A01 T03750101  RH  019%=      5-min Rain = 0
KBY1 160004Z 21005KT 38/10 A2993 RMK A01 T03750102  RH  019%=      5-min Rain = 0
KBY1 160005Z 23005KT 37/10 A2993 RMK A01 T03740101  RH  019%=      5-min Rain = 0
KBY1 160006Z 22005KT 37/10 A2993 RMK A01 T03740102  RH  019%=      5-min Rain = 0
KBY1 160007Z 24005KT 37/10 A2993 RMK A01 T03740098  RH  019%=      5-min Rain = 0
KBY1 160008Z 24007KT 37/10 A2993 RMK A01 T03740098  RH  019%=      5-min Rain = 0
KBY1 160009Z 24008KT 37/10 A2993 RMK A01 T03730099  RH  019%=      5-min Rain = 0
KBY1 160010Z 23009KT 37/10 A2993 RMK A01 T03720103  RH  020%=      5-min Rain = 0
KBY1 160011Z 23008KT 37/10 A2993 RMK A01 T03720101  RH  019%=      5-min Rain = 0
KBY1 160012Z 23007KT 37/10 A2993 RMK A01 T03720102  RH  020%=      5-min Rain = 0
KBY1 160013Z 22006KT 37/10 A2993 RMK A01 T03720103  RH  020%=      5-min Rain = 0
KBY1 160014Z 22006KT 37/10 A2993 RMK A01 T03710102  RH  020%=      5-min Rain = 0
KBY1 160015Z 23006KT 37/10 A2993 RMK A01 T03710103  RH  020%=      5-min Rain = 0
KBY1 160016Z 23007KT 37/11 A2993 RMK A01 T03710107  RH  020%=      5-min Rain = 0
KBY1 160017Z 23007KT 37/10 A2993 RMK A01 T03710102  RH  020%=      5-min Rain = 0
KBY1 160018Z 23007KT 37/10 A2993 RMK A01 T03710104  RH  020%=      5-min Rain = 0
KBY1 160019Z 25006KT 37/11 A2993 RMK A01 T03700105  RH  020%=      5-min Rain = 0
KBY1 160020Z 24004KT 37/11 A2993 RMK A01 T03700106  RH  020%=      5-min Rain = 0
KBY1 160021Z 24005KT 37/11 A2993 RMK A01 T03710105  RH  020%=      5-min Rain = 0
KBY1 160022Z 24005KT 37/10 A2993 RMK A01 T03710102  RH  020%=      5-min Rain = 0
KBY1 160023Z 23004KT 37/10 A2993 RMK A01 T03710104  RH  020%=      5-min Rain = 0
KBY1 160024Z 23004KT 37/11 A2993 RMK A01 T03700105  RH  020%=      5-min Rain = 0
KBY1 160025Z 23004KT 37/11 A2993 RMK A01 T03710105  RH  020%=      5-min Rain = 0
KBY1 160026Z 24004KT 37/10 A2993 RMK A01 T03700102  RH  020%=      5-min Rain = 0
KBY1 160027Z 24005KT 37/10 A2993 RMK A01 T03710104  RH  020%=      5-min Rain = 0
KBY1 160028Z 25006KT 37/10 A2993 RMK A01 T03700104  RH  020%=      5-min Rain = 0
KBY1 160029Z 25006KT 37/10 A2993 RMK A01 T03700103  RH  020%=      5-min Rain = 0
KBY1 160030Z 22005KT 37/11 A2993 RMK A01 T03700107  RH  020%=      5-min Rain = 0
KBY1 160031Z 22006KT 37/11 A2993 RMK A01 T03690105  RH  020%=      5-min Rain = 0
KBY1 160032Z 23006KT 37/11 A2993 RMK A01 T03680105  RH  020%=      5-min Rain = 0
KBY1 160033Z 22006KT 37/11 A2993 RMK A01 T03680105  RH  020%=      5-min Rain = 0
KBY1 160034Z 22005KT 37/11 A2993 RMK A01 T03670108  RH  021%=      5-min Rain = 0
KBY1 160035Z 23004KT 37/11 A2993 RMK A01 T03660109  RH  021%=      5-min Rain = 0
KBY1 160036Z 22004KT 37/11 A2993 RMK A01 T03670107  RH  021%=      5-min Rain = 0
KBY1 160037Z 22005KT 37/11 A2993 RMK A01 T03660107  RH  021%=      5-min Rain = 0
KBY1 160038Z 23004KT 37/11 A2993 RMK A01 T03650112  RH  022%=      5-min Rain = 0
KBY1 160039Z 23005KT 37/11 A2993 RMK A01 T03650114  RH  022%=      5-min Rain = 0
KBY1 160040Z 22007KT 36/11 A2993 RMK A01 T03640111  RH  022%=      5-min Rain = 0
KBY1 160041Z 23006KT 36/11 A2993 RMK A01 T03640113  RH  022%=      5-min Rain = 0
KBY1 160042Z 23005KT 36/11 A2993 RMK A01 T03630111  RH  022%=      5-min Rain = 0
KBY1 160043Z 24005KT 36/11 A2993 RMK A01 T03630112  RH  022%=      5-min Rain = 0
KBY1 160044Z 24006KT 36/11 A2993 RMK A01 T03620108  RH  022%=      5-min Rain = 0
KBY1 160045Z 24005KT 36/11 A2993 RMK A01 T03620107  RH  021%=      5-min Rain = 0
KBY1 160046Z 24006KT 36/11 A2993 RMK A01 T03610106  RH  021%=      5-min Rain = 0
KBY1 160047Z 24006KT 36/10 A2993 RMK A01 T03600103  RH  021%=      5-min Rain = 0
KBY1 160048Z 24007KT 36/10 A2993 RMK A01 T03590103  RH  021%=      5-min Rain = 0
KBY1 160049Z 24007KT 36/10 A2993 RMK A01 T03570102  RH  021%=      5-min Rain = 0
KBY1 160050Z 24007KT 36/10 A2993 RMK A01 T03560099  RH  021%=      5-min Rain = 0
KBY1 160051Z 25007KT 36/10 A2993 RMK A01 T03560096  RH  021%=      5-min Rain = 0
KBY1 160052Z 25006KT 36/10 A2993 RMK A01 T03560095  RH  020%=      5-min Rain = 0
KBY1 160053Z 24005KT 36/10 A2993 RMK A01 T03560096  RH  020%=      5-min Rain = 0
KBY1 160054Z 24005KT 36/10 A2993 RMK A01 T03560098  RH  021%=      5-min Rain = 0
KBY1 160055Z 23003KT 35/10 A2993 RMK A01 T03540100  RH  021%=      5-min Rain = 0
KBY1 160056Z 23004KT 35/10 A2993 RMK A01 T03510100  RH  022%=      5-min Rain = 0
KBY1 160057Z 24004KT 35/10 A2993 RMK A01 T03500102  RH  022%=      5-min Rain = 0
KBY1 160058Z 24004KT 35/10 A2993 RMK A01 T03490103  RH  022%=      5-min Rain = 0
KBY1 160059Z 25003KT 35/11 A2993 RMK A01 T03480105  RH  023%=      5-min Rain = 0
KBY1 160100Z 25003KT 35/10 A2993 RMK A01 T03470104  RH  023%=      5-min Rain = 0
KBY1 160101Z 24003KT 35/10 A2993 RMK A01 T03460104  RH  023%=      5-min Rain = 0
KBY1 160102Z 24003KT 35/10 A2993 RMK A01 T03460104  RH  023%=      5-min Rain = 0
KBY1 160103Z 23003KT 35/10 A2993 RMK A01 T03450103  RH  023%=      5-min Rain = 0
KBY1 160104Z 23003KT 35/10 A2993 RMK A01 T03450104  RH  023%=      5-min Rain = 0
KBY1 160105Z 22002KT 34/11 A2993 RMK A01 T03440106  RH  023%=      5-min Rain = 0
KBY1 160106Z 22002KT 34/11 A2993 RMK A01 T03440106  RH  023%=      5-min Rain = 0
KBY1 160107Z 21002KT 34/11 A2993 RMK A01 T03430114  RH  025%=      5-min Rain = 0
KBY1 160108Z 22002KT 34/12 A2993 RMK A01 T03410117  RH  026%=      5-min Rain = 0
KBY1 160109Z 23002KT 34/12 A2993 RMK A01 T03390123  RH  027%=      5-min Rain = 0
KBY1 160110Z 23002KT 34/12 A2994 RMK A01 T03370123  RH  027%=      5-min Rain = 0
KBY1 160111Z 23002KT 34/12 A2994 RMK A01 T03350119  RH  027%=      5-min Rain = 0
KBY1 160112Z 22002KT 34/11 A2994 RMK A01 T03350114  RH  026%=      5-min Rain = 0
KBY1 160113Z 23002KT 33/12 A2994 RMK A01 T03340115  RH  026%=      5-min Rain = 0
KBY1 160114Z 23002KT 33/12 A2993 RMK A01 T03340115  RH  026%=      5-min Rain = 0
KBY1 160115Z 23002KT 33/12 A2994 RMK A01 T03340117  RH  027%=      5-min Rain = 0
KBY1 160116Z 23002KT 33/12 A2994 RMK A01 T03330115  RH  027%=      5-min Rain = 0
KBY1 160117Z 23002KT 33/12 A2993 RMK A01 T03320115  RH  027%=      5-min Rain = 0
KBY1 160118Z 22003KT 33/12 A2994 RMK A01 T03310116  RH  027%=      5-min Rain = 0
KBY1 160119Z 22003KT 33/12 A2994 RMK A01 T03310117  RH  027%=      5-min Rain = 0
KBY1 160120Z 22003KT 33/12 A2994 RMK A01 T03300118  RH  027%=      5-min Rain = 0
KBY1 160121Z 22003KT 33/12 A2993 RMK A01 T03290118  RH  028%=      5-min Rain = 0
KBY1 160122Z 22003KT 33/12 A2993 RMK A01 T03290117  RH  028%=      5-min Rain = 0
KBY1 160123Z 21003KT 33/12 A2993 RMK A01 T03280117  RH  028%=      5-min Rain = 0
KBY1 160124Z 22003KT 33/12 A2993 RMK A01 T03280118  RH  028%=      5-min Rain = 0
KBY1 160125Z 22003KT 33/12 A2993 RMK A01 T03270122  RH  029%=      5-min Rain = 0
KBY1 160126Z 22004KT 33/12 A2993 RMK A01 T03260122  RH  029%=      5-min Rain = 0
KBY1 160127Z 22004KT 32/12 A2993 RMK A01 T03240121  RH  029%=      5-min Rain = 0
KBY1 160128Z 21004KT 32/12 A2993 RMK A01 T03230123  RH  029%=      5-min Rain = 0
KBY1 160129Z 21004KT 32/12 A2993 RMK A01 T03220122  RH  029%=      5-min Rain = 0
KBY1 160130Z 21004KT 32/12 A2993 RMK A01 T03210120  RH  029%=      5-min Rain = 0
KBY1 160131Z 22004KT 32/12 A2993 RMK A01 T03210118  RH  029%=      5-min Rain = 0
KBY1 160132Z 22004KT 32/12 A2993 RMK A01 T03200117  RH  029%=      5-min Rain = 0
KBY1 160133Z 22004KT 32/12 A2993 RMK A01 T03200117  RH  029%=      5-min Rain = 0
KBY1 160134Z 22005KT 32/12 A2993 RMK A01 T03200115  RH  029%=      5-min Rain = 0
KBY1 160135Z 22004KT 32/12 A2993 RMK A01 T03200116  RH  029%=      5-min Rain = 0
KBY1 160136Z 22004KT 32/12 A2993 RMK A01 T03190116  RH  029%=      5-min Rain = 0
KBY1 160137Z 22004KT 32/11 A2993 RMK A01 T03190114  RH  029%=      5-min Rain = 0
KBY1 160138Z 21004KT 32/11 A2993 RMK A01 T03190113  RH  028%=      5-min Rain = 0
KBY1 160139Z 21004KT 32/11 A2993 RMK A01 T03190112  RH  028%=      5-min Rain = 0
KBY1 160140Z 21004KT 32/11 A2993 RMK A01 T03180113  RH  028%=      5-min Rain = 0
KBY1 160141Z 21004KT 32/11 A2993 RMK A01 T03180113  RH  028%=      5-min Rain = 0
KBY1 160142Z 21004KT 32/11 A2993 RMK A01 T03180112  RH  028%=      5-min Rain = 0
KBY1 160143Z 21004KT 32/11 A2993 RMK A01 T03170112  RH  028%=      5-min Rain = 0
KBY1 160144Z 21004KT 32/11 A2993 RMK A01 T03170112  RH  028%=      5-min Rain = 0
KBY1 160145Z 21004KT 32/11 A2993 RMK A01 T03170112  RH  029%=      5-min Rain = 0
KBY1 160146Z 21004KT 32/11 A2993 RMK A01 T03160112  RH  029%=      5-min Rain = 0
KBY1 160147Z 21004KT 32/11 A2993 RMK A01 T03150112  RH  029%=      5-min Rain = 0
KBY1 160148Z 21004KT 32/11 A2993 RMK A01 T03150112  RH  029%=      5-min Rain = 0
KBY1 160149Z 21003KT 31/11 A2993 RMK A01 T03140112  RH  029%=      5-min Rain = 0
KBY1 160150Z 22004KT 31/11 A2993 RMK A01 T03130112  RH  029%=      5-min Rain = 0
KBY1 160151Z 22004KT 31/11 A2993 RMK A01 T03120112  RH  029%=      5-min Rain = 0
KBY1 160152Z 22003KT 31/11 A2993 RMK A01 T03120112  RH  029%=      5-min Rain = 0
KBY1 160153Z 22004KT 31/11 A2993 RMK A01 T03120112  RH  029%=      5-min Rain = 0
KBY1 160154Z 22003KT 31/11 A2993 RMK A01 T03110112  RH  029%=      5-min Rain = 0
KBY1 160155Z 22003KT 31/11 A2993 RMK A01 T03100112  RH  029%=      5-min Rain = 0
KBY1 160156Z 22004KT 31/11 A2993 RMK A01 T03100112  RH  030%=      5-min Rain = 0
KBY1 160157Z 21003KT 31/11 A2993 RMK A01 T03090112  RH  030%=      5-min Rain = 0
KBY1 160158Z 21004KT 31/11 A2993 RMK A01 T03080112  RH  030%=      5-min Rain = 0
KBY1 160159Z 21004KT 31/11 A2993 RMK A01 T03080112  RH  030%=      5-min Rain = 0
KBY1 160200Z 22004KT 31/11 A2993 RMK A01 T03070113  RH  030%=      5-min Rain = 0
KBY1 160201Z 21004KT 31/11 A2993 RMK A01 T03060113  RH  030%=      5-min Rain = 0
KBY1 160202Z 22004KT 31/11 A2993 RMK A01 T03060113  RH  030%=      5-min Rain = 0
KBY1 160203Z 22005KT 31/11 A2993 RMK A01 T03050114  RH  031%=      5-min Rain = 0
KBY1 160204Z 22004KT 30/11 A2993 RMK A01 T03040114  RH  031%=      5-min Rain = 0
KBY1 160205Z 22005KT 30/12 A2993 RMK A01 T03040115  RH  031%=      5-min Rain = 0
KBY1 160206Z 22004KT 30/12 A2993 RMK A01 T03030115  RH  031%=      5-min Rain = 0
KBY1 160207Z 22004KT 30/11 A2993 RMK A01 T03020114  RH  031%=      5-min Rain = 0
KBY1 160208Z 22005KT 30/11 A2993 RMK A01 T03020113  RH  031%=      5-min Rain = 0
KBY1 160209Z 22004KT 30/11 A2993 RMK A01 T03020114  RH  031%=      5-min Rain = 0
KBY1 160210Z 21004KT 30/11 A2993 RMK A01 T03020114  RH  031%=      5-min Rain = 0
KBY1 160211Z 20004KT 30/11 A2993 RMK A01 T03010114  RH  031%=      5-min Rain = 0
KBY1 160212Z 19004KT 30/11 A2993 RMK A01 T03000112  RH  031%=      5-min Rain = 0
KBY1 160213Z 19004KT 30/11 A2993 RMK A01 T02990112  RH  032%=      5-min Rain = 0
KBY1 160214Z 18004KT 30/12 A2993 RMK A01 T02980118  RH  033%=      5-min Rain = 0
KBY1 160215Z 19003KT 30/12 A2993 RMK A01 T02960120  RH  034%=      5-min Rain = 0
KBY1 160216Z 19004KT 30/12 A2993 RMK A01 T02950120  RH  034%=      5-min Rain = 0
KBY1 160217Z 19003KT 29/12 A2993 RMK A01 T02940122  RH  035%=      5-min Rain = 0
KBY1 160218Z 20004KT 29/12 A2993 RMK A01 T02930119  RH  034%=      5-min Rain = 0
KBY1 160219Z 20004KT 29/12 A2993 RMK A01 T02920117  RH  034%=      5-min Rain = 0
KBY1 160220Z 20003KT 29/12 A2993 RMK A01 T02930116  RH  033%=      5-min Rain = 0
KBY1 160221Z 21003KT 29/11 A2993 RMK A01 T02930114  RH  033%=      5-min Rain = 0
KBY1 160222Z 21003KT 29/11 A2993 RMK A01 T02940113  RH  033%=      5-min Rain = 0
KBY1 160223Z 21003KT 29/11 A2993 RMK A01 T02940111  RH  032%=      5-min Rain = 0
KBY1 160224Z 21003KT 30/11 A2993 RMK A01 T02950111  RH  032%=      5-min Rain = 0
KBY1 160225Z 20003KT 30/11 A2993 RMK A01 T02960111  RH  032%=      5-min Rain = 0
KBY1 160226Z 20003KT 30/11 A2993 RMK A01 T02960111  RH  032%=      5-min Rain = 0
KBY1 160227Z 20002KT 30/11 A2993 RMK A01 T02960111  RH  032%=      5-min Rain = 0
KBY1 160228Z 18001KT 30/11 A2993 RMK A01 T02970114  RH  032%=      5-min Rain = 0
KBY1 160229Z 19000KT 30/11 A2993 RMK A01 T02960112  RH  032%=      5-min Rain = 0
KBY1 160230Z 10000KT 30/11 A2993 RMK A01 T02950111  RH  032%=      5-min Rain = 0
KBY1 160231Z 08001KT 30/11 A2993 RMK A01 T02950110  RH  032%=      5-min Rain = 0
KBY1 160232Z 08002KT 29/12 A2994 RMK A01 T02940118  RH  034%=      5-min Rain = 0
KBY1 160233Z 09002KT 29/11 A2994 RMK A01 T02930113  RH  033%=      5-min Rain = 0
KBY1 160234Z 13001KT 29/11 A2994 RMK A01 T02920112  RH  033%=      5-min Rain = 0
KBY1 160235Z 15001KT 29/12 A2994 RMK A01 T02920115  RH  033%=      5-min Rain = 0
KBY1 160236Z 17000KT 29/12 A2994 RMK A01 T02910116  RH  034%=      5-min Rain = 0
KBY1 160237Z 12001KT 29/12 A2994 RMK A01 T02900115  RH  034%=      5-min Rain = 0
KBY1 160238Z 07001KT 29/11 A2994 RMK A01 T02900112  RH  033%=      5-min Rain = 0
KBY1 160239Z 00000KT 29/11 A2994 RMK A01 T02900112  RH  033%=      5-min Rain = 0
KBY1 160240Z 00000KT 29/11 A2994 RMK A01 T02900110  RH  033%=      5-min Rain = 0
KBY1 160241Z 16000KT 29/11 A2994 RMK A01 T02910111  RH  033%=      5-min Rain = 0
KBY1 160242Z 16000KT 29/11 A2994 RMK A01 T02910110  RH  033%=      5-min Rain = 0
KBY1 160243Z 16000KT 29/11 A2994 RMK A01 T02910109  RH  032%=      5-min Rain = 0
KBY1 160244Z 15001KT 29/11 A2994 RMK A01 T02920110  RH  032%=      5-min Rain = 0
KBY1 160245Z 17000KT 29/11 A2994 RMK A01 T02920114  RH  033%=      5-min Rain = 0
KBY1 160246Z 18001KT 29/11 A2994 RMK A01 T02910112  RH  033%=      5-min Rain = 0
KBY1 160247Z 17000KT 29/11 A2994 RMK A01 T02910113  RH  033%=      5-min Rain = 0
KBY1 160248Z 15001KT 29/12 A2994 RMK A01 T02900116  RH  034%=      5-min Rain = 0
KBY1 160249Z 14001KT 29/12 A2994 RMK A01 T02890115  RH  034%=      5-min Rain = 0
KBY1 160250Z 16001KT 29/11 A2994 RMK A01 T02870114  RH  034%=      5-min Rain = 0
KBY1 160251Z 18001KT 29/11 A2994 RMK A01 T02870112  RH  034%=      5-min Rain = 0
KBY1 160252Z 16003KT 29/11 A2994 RMK A01 T02870112  RH  034%=      5-min Rain = 0
KBY1 160253Z 18001KT 29/11 A2994 RMK A01 T02870114  RH  034%=      5-min Rain = 0
KBY1 160254Z 19002KT 29/12 A2994 RMK A01 T02870116  RH  035%=      5-min Rain = 0
KBY1 160255Z 18002KT 29/12 A2994 RMK A01 T02870117  RH  035%=      5-min Rain = 0
KBY1 160256Z 19001KT 29/12 A2994 RMK A01 T02860115  RH  035%=      5-min Rain = 0
KBY1 160257Z 18001KT 29/11 A2994 RMK A01 T02850113  RH  034%=      5-min Rain = 0
KBY1 160258Z 17000KT 29/11 A2994 RMK A01 T02850114  RH  035%=      5-min Rain = 0
KBY1 160259Z 20001KT 28/12 A2994 RMK A01 T02840115  RH  035%=      5-min Rain = 0
KBY1 160300Z 18002KT 28/12 A2994 RMK A01 T02830117  RH  036%=      5-min Rain = 0
KBY1 160301Z 18001KT 28/11 A2994 RMK A01 T02820114  RH  035%=      5-min Rain = 0
KBY1 160302Z 20002KT 28/12 A2994 RMK A01 T02810115  RH  036%=      5-min Rain = 0
KBY1 160303Z 19001KT 28/12 A2995 RMK A01 T02810115  RH  036%=      5-min Rain = 0
KBY1 160304Z 18001KT 28/11 A2995 RMK A01 T02800114  RH  036%=      5-min Rain = 0
KBY1 160305Z 18000KT 28/12 A2995 RMK A01 T02800115  RH  036%=      5-min Rain = 0
KBY1 160306Z 00000KT 28/12 A2995 RMK A01 T02790116  RH  036%=      5-min Rain = 0
KBY1 160307Z 18001KT 28/12 A2995 RMK A01 T02790115  RH  036%=      5-min Rain = 0
KBY1 160308Z 21000KT 28/11 A2995 RMK A01 T02780114  RH  036%=      5-min Rain = 0
KBY1 160309Z 21000KT 28/11 A2995 RMK A01 T02780113  RH  036%=      5-min Rain = 0
KBY1 160310Z 14000KT 28/11 A2995 RMK A01 T02780111  RH  035%=      5-min Rain = 0
KBY1 160311Z 20000KT 28/12 A2995 RMK A01 T02780115  RH  036%=      5-min Rain = 0
KBY1 160312Z 21001KT 28/11 A2995 RMK A01 T02780114  RH  036%=      5-min Rain = 0
KBY1 160313Z 26000KT 28/12 A2995 RMK A01 T02780118  RH  037%=      5-min Rain = 0
KBY1 160314Z 18000KT 28/12 A2995 RMK A01 T02750119  RH  038%=      5-min Rain = 0
KBY1 160315Z 00000KT 27/11 A2995 RMK A01 T02740114  RH  037%=      5-min Rain = 0
KBY1 160316Z 20000KT 27/12 A2995 RMK A01 T02730117  RH  038%=      5-min Rain = 0
KBY1 160317Z 00000KT 27/12 A2995 RMK A01 T02720121  RH  039%=      5-min Rain = 0
KBY1 160318Z 00000KT 27/12 A2995 RMK A01 T02700120  RH  039%=      5-min Rain = 0
KBY1 160319Z 00000KT 27/12 A2995 RMK A01 T02700115  RH  038%=      5-min Rain = 0
KBY1 160320Z 00000KT 27/11 A2995 RMK A01 T02700113  RH  038%=      5-min Rain = 0
KBY1 160321Z 00000KT 27/12 A2995 RMK A01 T02690116  RH  039%=      5-min Rain = 0
KBY1 160322Z 00000KT 27/12 A2996 RMK A01 T02700117  RH  039%=      5-min Rain = 0
KBY1 160323Z 00000KT 27/12 A2996 RMK A01 T02690115  RH  038%=      5-min Rain = 0
KBY1 160324Z 19000KT 27/12 A2996 RMK A01 T02680115  RH  039%=      5-min Rain = 0
KBY1 160325Z 00000KT 27/12 A2996 RMK A01 T02680121  RH  040%=      5-min Rain = 0
KBY1 160326Z 00000KT 27/12 A2996 RMK A01 T02670115  RH  039%=      5-min Rain = 0
KBY1 160327Z 35000KT 27/12 A2996 RMK A01 T02660122  RH  041%=      5-min Rain = 0
KBY1 160328Z 21000KT 27/12 A2996 RMK A01 T02650115  RH  039%=      5-min Rain = 0
KBY1 160329Z 21000KT 27/12 A2996 RMK A01 T02650118  RH  040%=      5-min Rain = 0
KBY1 160330Z 18002KT 27/11 A2996 RMK A01 T02650112  RH  038%=      5-min Rain = 0
KBY1 160331Z 15003KT 27/12 A2996 RMK A01 T02660123  RH  041%=      5-min Rain = 0
KBY1 160332Z 18005KT 26/13 A2996 RMK A01 T02630125  RH  042%=      5-min Rain = 0
KBY1 160333Z 20007KT 26/12 A2996 RMK A01 T02620123  RH  042%=      5-min Rain = 0
KBY1 160334Z 20008KT 26/12 A2996 RMK A01 T02630115  RH  040%=      5-min Rain = 0
KBY1 160335Z 20009KT 27/12 A2996 RMK A01 T02690115  RH  038%=      5-min Rain = 0
KBY1 160336Z 20008KT 27/12 A2996 RMK A01 T02740115  RH  037%=      5-min Rain = 0
KBY1 160337Z 20009KT 28/12 A2996 RMK A01 T02780115  RH  036%=      5-min Rain = 0
KBY1 160338Z 20009KT 28/11 A2997 RMK A01 T02810114  RH  035%=      5-min Rain = 0
KBY1 160339Z 20008KT 28/12 A2997 RMK A01 T02840115  RH  035%=      5-min Rain = 0
KBY1 160340Z 20010KT 29/12 A2997 RMK A01 T02860117  RH  035%=      5-min Rain = 0
KBY1 160341Z 20009KT 29/12 A2997 RMK A01 T02870120  RH  036%=      5-min Rain = 0
KBY1 160342Z 20011KT 29/12 A2997 RMK A01 T02890121  RH  036%=      5-min Rain = 0
KBY1 160343Z 20010KT 29/12 A2997 RMK A01 T02890122  RH  036%=      5-min Rain = 0
KBY1 160344Z 20010KT 29/12 A2997 RMK A01 T02890124  RH  036%=      5-min Rain = 0
KBY1 160345Z 19011KT 29/13 A2997 RMK A01 T02890125  RH  036%=      5-min Rain = 0
KBY1 160346Z 20009KT 29/13 A2997 RMK A01 T02900128  RH  037%=      5-min Rain = 0
KBY1 160347Z 20010KT 29/13 A2997 RMK A01 T02900129  RH  037%=      5-min Rain = 0
KBY1 160348Z 20011KT 29/13 A2997 RMK A01 T02900132  RH  038%=      5-min Rain = 0
KBY1 160349Z 20009KT 29/13 A2997 RMK A01 T02910134  RH  038%=      5-min Rain = 0
KBY1 160350Z 20010KT 29/14 A2997 RMK A01 T02910136  RH  039%=      5-min Rain = 0
KBY1 160351Z 20009KT 29/14 A2997 RMK A01 T02910139  RH  039%=      5-min Rain = 0
KBY1 160352Z 20011KT 29/14 A2997 RMK A01 T02910141  RH  040%=      5-min Rain = 0
KBY1 160353Z 20010KT 29/14 A2997 RMK A01 T02910143  RH  040%=      5-min Rain = 0
KBY1 160354Z 20011KT 29/14 A2997 RMK A01 T02920144  RH  041%=      5-min Rain = 0
KBY1 160355Z 20012KT 29/15 A2997 RMK A01 T02920146  RH  041%=      5-min Rain = 0
KBY1 160356Z 20012KT 29/15 A2997 RMK A01 T02920147  RH  041%=      5-min Rain = 0
KBY1 160357Z 21015KT 29/15 A2997 RMK A01 T02940148  RH  041%=      5-min Rain = 0
KBY1 160358Z 20013KT 30/15 A2997 RMK A01 T02950149  RH  041%=      5-min Rain = 0
KBY1 160359Z 20011KT 30/15 A2997 RMK A01 T02950150  RH  041%=      5-min Rain = 0
KBY1 160400Z 20011KT 30/15 A2997 RMK A01 T02950151  RH  042%=      5-min Rain = 0
KBY1 160401Z 20011KT 30/15 A2997 RMK A01 T02950152  RH  042%=      5-min Rain = 0
KBY1 160402Z 20013KT 29/15 A2997 RMK A01 T02940152  RH  042%=      5-min Rain = 0
KBY1 160403Z 20015KT 29/15 A2996 RMK A01 T02940153  RH  042%=      5-min Rain = 0
KBY1 160404Z 20013KT 30/15 A2997 RMK A01 T02950152  RH  042%=      5-min Rain = 0
KBY1 160405Z 20012G17KT 30/15 A2996 RMK A01 T02950153  RH  042%=      5-min Rain = 0
KBY1 160406Z 21014G19KT 30/15 A2996 RMK A01 T02950153  RH  042%=      5-min Rain = 0
KBY1 160407Z 20012KT 30/15 A2997 RMK A01 T02950154  RH  042%=      5-min Rain = 0
KBY1 160408Z 20014G19KT 30/15 A2997 RMK A01 T02950153  RH  042%=      5-min Rain = 0
KBY1 160409Z 21013KT 30/15 A2997 RMK A01 T02960154  RH  042%=      5-min Rain = 0
KBY1 160410Z 21014KT 30/15 A2997 RMK A01 T02960154  RH  042%=      5-min Rain = 0
KBY1 160411Z 21013KT 30/15 A2997 RMK A01 T02960154  RH  042%=      5-min Rain = 0
KBY1 160412Z 20015KT 30/15 A2997 RMK A01 T02960154  RH  042%=      5-min Rain = 0
KBY1 160413Z 20013KT 30/15 A2997 RMK A01 T02960154  RH  042%=      5-min Rain = 0
KBY1 160414Z 20015KT 30/15 A2997 RMK A01 T02970154  RH  042%=      5-min Rain = 0
KBY1 160415Z 20014KT 30/15 A2997 RMK A01 T02970154  RH  042%=      5-min Rain = 0
KBY1 160416Z 20017KT 30/15 A2997 RMK A01 T02970154  RH  042%=      5-min Rain = 0
KBY1 160417Z 20015KT 30/15 A2997 RMK A01 T02960154  RH  042%=      5-min Rain = 0
KBY1 160418Z 20017G22KT 30/15 A2997 RMK A01 T02970154  RH  042%=      5-min Rain = 0
KBY1 160419Z 20016G21KT 30/15 A2997 RMK A01 T02970154  RH  042%=      5-min Rain = 0
KBY1 160420Z 20017G22KT 30/15 A2997 RMK A01 T02970154  RH  042%=      5-min Rain = 0
KBY1 160421Z 20017KT 30/15 A2997 RMK A01 T02970154  RH  042%=      5-min Rain = 0
KBY1 160422Z 20013KT 30/15 A2997 RMK A01 T02970154  RH  042%=      5-min Rain = 0
KBY1 160423Z 20015KT 30/15 A2997 RMK A01 T02970154  RH  042%=      5-min Rain = 0
KBY1 160424Z 20011KT 30/16 A2997 RMK A01 T02970155  RH  042%=      5-min Rain = 0
KBY1 160425Z 20013KT 30/16 A2997 RMK A01 T02960155  RH  042%=      5-min Rain = 0
KBY1 160426Z 19014KT 30/16 A2997 RMK A01 T02950155  RH  043%=      5-min Rain = 0
KBY1 160427Z 20013G20KT 30/16 A2997 RMK A01 T02950155  RH  043%=      5-min Rain = 0
KBY1 160428Z 20015KT 29/16 A2997 RMK A01 T02940155  RH  043%=      5-min Rain = 0
KBY1 160429Z 20013KT 29/16 A2997 RMK A01 T02940156  RH  043%=      5-min Rain = 0
KBY1 160430Z 19014KT 29/16 A2997 RMK A01 T02940156  RH  043%=      5-min Rain = 0
KBY1 160431Z 20013G18KT 29/16 A2997 RMK A01 T02940156  RH  043%=      5-min Rain = 0
KBY1 160432Z 20013KT 29/16 A2997 RMK A01 T02930156  RH  044%=      5-min Rain = 0
KBY1 160433Z 20016KT 29/16 A2997 RMK A01 T02930156  RH  044%=      5-min Rain = 0
KBY1 160434Z 20013G18KT 29/16 A2997 RMK A01 T02920156  RH  044%=      5-min Rain = 0
KBY1 160435Z 20014KT 29/16 A2997 RMK A01 T02930157  RH  044%=      5-min Rain = 0
KBY1 160436Z 20015KT 29/16 A2997 RMK A01 T02930156  RH  043%=      5-min Rain = 0
KBY1 160437Z 20013KT 29/16 A2997 RMK A01 T02930156  RH  043%=      5-min Rain = 0
KBY1 160438Z 20012G17KT 29/16 A2997 RMK A01 T02930157  RH  044%=      5-min Rain = 0
KBY1 160439Z 20013KT 29/16 A2997 RMK A01 T02930157  RH  044%=      5-min Rain = 0
KBY1 160440Z 19011KT 29/16 A2997 RMK A01 T02930157  RH  044%=      5-min Rain = 0
KBY1 160441Z 20012KT 29/16 A2997 RMK A01 T02920157  RH  044%=      5-min Rain = 0
KBY1 160442Z 19011G16KT 29/16 A2998 RMK A01 T02920157  RH  044%=      5-min Rain = 0
KBY1 160443Z 19011KT 29/16 A2998 RMK A01 T02910157  RH  044%=      5-min Rain = 0
KBY1 160444Z 19010KT 29/16 A2998 RMK A01 T02910157  RH  044%=      5-min Rain = 0
KBY1 160445Z 19015KT 29/16 A2998 RMK A01 T02910157  RH  044%=      5-min Rain = 0
KBY1 160446Z 20014G21KT 29/16 A2998 RMK A01 T02910157  RH  044%=      5-min Rain = 0
KBY1 160447Z 20012KT 29/16 A2998 RMK A01 T02910157  RH  044%=      5-min Rain = 0
KBY1 160448Z 20014G20KT 29/16 A2998 RMK A01 T02910157  RH  044%=      5-min Rain = 0
KBY1 160449Z 20012KT 29/16 A2998 RMK A01 T02910157  RH  044%=      5-min Rain = 0
KBY1 160450Z 20016KT 29/16 A2998 RMK A01 T02910158  RH  044%=      5-min Rain = 0
KBY1 160451Z 20014KT 29/16 A2998 RMK A01 T02910157  RH  044%=      5-min Rain = 0
KBY1 160452Z 19012KT 29/16 A2998 RMK A01 T02910157  RH  044%=      5-min Rain = 0
KBY1 160453Z 19015G20KT 29/16 A2998 RMK A01 T02910157  RH  044%=      5-min Rain = 0
KBY1 160454Z 20014KT 29/16 A2998 RMK A01 T02910157  RH  044%=      5-min Rain = 0
KBY1 160455Z 19011KT 29/16 A2998 RMK A01 T02910156  RH  044%=      5-min Rain = 0
KBY1 160456Z 20010G15KT 29/16 A2998 RMK A01 T02900157  RH  044%=      5-min Rain = 0
KBY1 160457Z 20010KT 29/16 A2998 RMK A01 T02900157  RH  044%=      5-min Rain = 0
KBY1 160458Z 20013KT 29/16 A2998 RMK A01 T02890156  RH  045%=      5-min Rain = 0
KBY1 160459Z 20014KT 29/16 A2998 RMK A01 T02890156  RH  044%=      5-min Rain = 0

Page generated in 0.1411 seconds.